Observation data for Stinnett on 08/14/2019      Previous  Date  Next       Current Mesonet Observations  Soil Data  Daily Summary Page  Observations in Plain Language
KST3 140500Z 06020KT 20/14 A3025 RMK A01 T02040142  RH  068%=      5-min Rain = 0
KST3 140501Z 06021G27KT 20/14 A3025 RMK A01 T02040142  RH  068%=      5-min Rain = 0
KST3 140502Z 06017G23KT 20/14 A3025 RMK A01 T02040143  RH  068%=      5-min Rain = 0
KST3 140503Z 06020KT 20/14 A3025 RMK A01 T02040143  RH  068%=      5-min Rain = 0
KST3 140504Z 06017KT 20/14 A3025 RMK A01 T02040143  RH  068%=      5-min Rain = 0
KST3 140505Z 05018KT 20/14 A3026 RMK A01 T02040144  RH  068%=      5-min Rain = 0
KST3 140506Z 06018G23KT 20/14 A3026 RMK A01 T02030143  RH  068%=      5-min Rain = 0
KST3 140507Z 06018KT 20/14 A3026 RMK A01 T02030144  RH  069%=      5-min Rain = 0
KST3 140508Z 06018KT 20/14 A3026 RMK A01 T02030144  RH  069%=      5-min Rain = 0
KST3 140509Z 06018KT 20/14 A3026 RMK A01 T02020144  RH  069%=      5-min Rain = 0
KST3 140510Z 06018KT 20/14 A3026 RMK A01 T02020144  RH  069%=      5-min Rain = 0
KST3 140527Z 06023G29KT 20/14 A3025 RMK A01 T01980142  RH  070%=      5-min Rain = 0
KST3 140528Z 06022G28KT 20/14 A3025 RMK A01 T01980141  RH  070%=      5-min Rain = 0
KST3 140529Z 06021G26KT 20/14 A3025 RMK A01 T01980141  RH  070%=      5-min Rain = 0
KST3 140530Z 06017G23KT 20/14 A3025 RMK A01 T01970141  RH  070%=      5-min Rain = 0
KST3 140531Z 07020KT 20/14 A3025 RMK A01 T01970142  RH  071%=      5-min Rain = 0
KST3 140532Z 06019KT 20/14 A3025 RMK A01 T01960141  RH  070%=      5-min Rain = 0
KST3 140533Z 06016G23KT 20/14 A3025 RMK A01 T01960141  RH  070%=      5-min Rain = 0
KST3 140534Z 06015KT 20/14 A3025 RMK A01 T01960141  RH  071%=      5-min Rain = 0
KST3 140535Z 06015G20KT 20/14 A3026 RMK A01 T01950141  RH  071%=      5-min Rain = 0
KST3 140536Z 06017G23KT 19/14 A3026 RMK A01 T01940141  RH  071%=      5-min Rain = 0
KST3 140537Z 06016G21KT 19/14 A3026 RMK A01 T01940141  RH  071%=      5-min Rain = 0
KST3 140538Z 06016KT 19/14 A3026 RMK A01 T01940141  RH  071%=      5-min Rain = 0
KST3 140539Z 06016KT 19/14 A3026 RMK A01 T01940141  RH  071%=      5-min Rain = 0
KST3 140540Z 06016KT 19/14 A3026 RMK A01 T01930141  RH  072%=      5-min Rain = 0
KST3 140541Z 06013KT 19/14 A3026 RMK A01 T01930140  RH  072%=      5-min Rain = 0
KST3 140542Z 06014G19KT 19/14 A3026 RMK A01 T01930140  RH  072%=      5-min Rain = 0
KST3 140543Z 06016G22KT 19/14 A3026 RMK A01 T01930140  RH  072%=      5-min Rain = 0
KST3 140544Z 06017KT 19/14 A3026 RMK A01 T01930140  RH  071%=      5-min Rain = 0
KST3 140545Z 06014KT 19/14 A3026 RMK A01 T01930140  RH  071%=      5-min Rain = 0
KST3 140546Z 05014KT 19/14 A3026 RMK A01 T01920139  RH  071%=      5-min Rain = 0
KST3 140547Z 06015G21KT 19/14 A3026 RMK A01 T01920139  RH  071%=      5-min Rain = 0
KST3 140548Z 06013KT 19/14 A3026 RMK A01 T01920138  RH  071%=      5-min Rain = 0
KST3 140549Z 06016KT 19/14 A3026 RMK A01 T01920139  RH  071%=      5-min Rain = 0
KST3 140550Z 06014KT 19/14 A3026 RMK A01 T01920138  RH  071%=      5-min Rain = 0
KST3 140551Z 06014G19KT 19/14 A3026 RMK A01 T01920138  RH  071%=      5-min Rain = 0
KST3 140552Z 06015KT 19/14 A3026 RMK A01 T01920138  RH  071%=      5-min Rain = 0
KST3 140553Z 06015KT 19/14 A3025 RMK A01 T01920137  RH  071%=      5-min Rain = 0
KST3 140554Z 06014KT 19/14 A3025 RMK A01 T01920137  RH  071%=      5-min Rain = 0
KST3 140555Z 06014KT 19/14 A3025 RMK A01 T01910137  RH  071%=      5-min Rain = 0
KST3 140556Z 06015KT 19/14 A3025 RMK A01 T01910137  RH  071%=      5-min Rain = 0
KST3 140557Z 06015KT 19/14 A3025 RMK A01 T01910138  RH  071%=      5-min Rain = 0
KST3 140558Z 06014KT 19/14 A3025 RMK A01 T01900137  RH  071%=      5-min Rain = 0
KST3 140559Z 06017KT 19/14 A3025 RMK A01 T01900137  RH  071%=      5-min Rain = 0
KST3 140600Z 06013G18KT 19/14 A3025 RMK A01 T01900136  RH  071%=      5-min Rain = 0
KST3 140601Z 06013KT 19/14 A3025 RMK A01 T01900137  RH  071%=      5-min Rain = 0
KST3 140602Z 06012KT 19/14 A3025 RMK A01 T01900137  RH  071%=      5-min Rain = 0
KST3 140603Z 06014KT 19/14 A3025 RMK A01 T01890136  RH  071%=      5-min Rain = 0
KST3 140604Z 06012KT 19/14 A3025 RMK A01 T01890136  RH  071%=      5-min Rain = 0
KST3 140605Z 07012KT 19/14 A3024 RMK A01 T01890137  RH  072%=      5-min Rain = 0
KST3 140606Z 07014KT 19/14 A3024 RMK A01 T01890137  RH  072%=      5-min Rain = 0
KST3 140607Z 07013KT 19/14 A3025 RMK A01 T01890136  RH  071%=      5-min Rain = 0
KST3 140608Z 07013KT 19/14 A3025 RMK A01 T01890136  RH  071%=      5-min Rain = 0
KST3 140609Z 07012G17KT 19/14 A3025 RMK A01 T01890136  RH  071%=      5-min Rain = 0
KST3 140610Z 06011KT 19/14 A3025 RMK A01 T01890137  RH  072%=      5-min Rain = 0
KST3 140611Z 06013KT 19/14 A3025 RMK A01 T01890136  RH  071%=      5-min Rain = 0
KST3 140612Z 06015KT 19/14 A3025 RMK A01 T01890135  RH  071%=      5-min Rain = 0
KST3 140613Z 05013G18KT 19/13 A3025 RMK A01 T01880133  RH  070%=      5-min Rain = 0
KST3 140614Z 06016KT 19/13 A3025 RMK A01 T01890133  RH  070%=      5-min Rain = 0
KST3 140615Z 06012KT 19/13 A3025 RMK A01 T01890132  RH  070%=      5-min Rain = 0
KST3 140616Z 06011KT 19/13 A3025 RMK A01 T01890133  RH  070%=      5-min Rain = 0
KST3 140617Z 06012KT 19/13 A3025 RMK A01 T01890133  RH  070%=      5-min Rain = 0
KST3 140618Z 06014KT 19/13 A3025 RMK A01 T01890132  RH  070%=      5-min Rain = 0
KST3 140619Z 06014KT 19/13 A3025 RMK A01 T01880131  RH  069%=      5-min Rain = 0
KST3 140620Z 06013KT 19/13 A3025 RMK A01 T01890131  RH  069%=      5-min Rain = 0
KST3 140621Z 06010KT 19/13 A3025 RMK A01 T01890131  RH  069%=      5-min Rain = 0
KST3 140622Z 07011KT 19/13 A3025 RMK A01 T01890131  RH  069%=      5-min Rain = 0
KST3 140623Z 07011KT 19/13 A3025 RMK A01 T01880132  RH  069%=      5-min Rain = 0
KST3 140624Z 06011KT 19/13 A3025 RMK A01 T01880132  RH  070%=      5-min Rain = 0
KST3 140625Z 06009KT 19/13 A3025 RMK A01 T01880132  RH  070%=      5-min Rain = 0
KST3 140626Z 06012KT 19/13 A3025 RMK A01 T01870132  RH  070%=      5-min Rain = 0
KST3 140627Z 06011KT 19/13 A3025 RMK A01 T01870131  RH  070%=      5-min Rain = 0
KST3 140628Z 06012KT 19/13 A3025 RMK A01 T01870131  RH  070%=      5-min Rain = 0
KST3 140629Z 07010KT 19/13 A3025 RMK A01 T01870131  RH  070%=      5-min Rain = 0
KST3 140630Z 06010KT 19/13 A3025 RMK A01 T01870131  RH  070%=      5-min Rain = 0
KST3 140631Z 06009KT 19/13 A3025 RMK A01 T01870132  RH  070%=      5-min Rain = 0
KST3 140632Z 06010KT 19/13 A3025 RMK A01 T01870131  RH  070%=      5-min Rain = 0
KST3 140633Z 06010KT 19/13 A3025 RMK A01 T01860130  RH  070%=      5-min Rain = 0
KST3 140634Z 06010KT 19/13 A3025 RMK A01 T01860131  RH  070%=      5-min Rain = 0
KST3 140635Z 06009KT 19/13 A3025 RMK A01 T01860131  RH  070%=      5-min Rain = 0
KST3 140636Z 06010KT 19/13 A3025 RMK A01 T01860131  RH  070%=      5-min Rain = 0
KST3 140637Z 06010KT 19/13 A3025 RMK A01 T01860132  RH  071%=      5-min Rain = 0
KST3 140638Z 06011KT 19/13 A3025 RMK A01 T01850131  RH  071%=      5-min Rain = 0
KST3 140639Z 06009KT 19/13 A3025 RMK A01 T01850130  RH  070%=      5-min Rain = 0
KST3 140640Z 06009KT 19/13 A3025 RMK A01 T01850131  RH  070%=      5-min Rain = 0
KST3 140641Z 07010KT 19/13 A3025 RMK A01 T01850130  RH  070%=      5-min Rain = 0
KST3 140642Z 07009KT 19/13 A3025 RMK A01 T01850130  RH  070%=      5-min Rain = 0
KST3 140643Z 07009KT 19/13 A3025 RMK A01 T01860130  RH  070%=      5-min Rain = 0
KST3 140644Z 07010KT 19/13 A3025 RMK A01 T01850130  RH  070%=      5-min Rain = 0
KST3 140645Z 07008KT 19/13 A3025 RMK A01 T01850130  RH  070%=      5-min Rain = 0
KST3 140646Z 07009KT 19/13 A3024 RMK A01 T01850130  RH  070%=      5-min Rain = 0
KST3 140647Z 07010KT 19/13 A3024 RMK A01 T01850130  RH  070%=      5-min Rain = 0
KST3 140648Z 07009KT 18/13 A3024 RMK A01 T01840130  RH  070%=      5-min Rain = 0
KST3 140649Z 07007KT 18/13 A3024 RMK A01 T01840130  RH  071%=      5-min Rain = 0
KST3 140650Z 07009KT 18/13 A3024 RMK A01 T01840130  RH  071%=      5-min Rain = 0
KST3 140651Z 07008KT 18/13 A3024 RMK A01 T01840130  RH  071%=      5-min Rain = 0
KST3 140652Z 07009KT 18/13 A3024 RMK A01 T01840131  RH  071%=      5-min Rain = 0
KST3 140653Z 07007KT 18/13 A3024 RMK A01 T01830131  RH  072%=      5-min Rain = 0
KST3 140654Z 08008KT 18/13 A3024 RMK A01 T01830131  RH  072%=      5-min Rain = 0
KST3 140655Z 07008KT 18/13 A3024 RMK A01 T01820131  RH  072%=      5-min Rain = 0
KST3 140656Z 07008KT 18/13 A3024 RMK A01 T01820131  RH  072%=      5-min Rain = 0
KST3 140657Z 07010KT 18/13 A3024 RMK A01 T01820130  RH  072%=      5-min Rain = 0
KST3 140658Z 07009KT 18/13 A3024 RMK A01 T01820130  RH  072%=      5-min Rain = 0
KST3 140659Z 07008KT 18/13 A3024 RMK A01 T01810130  RH  072%=      5-min Rain = 0
KST3 140700Z 07009KT 18/13 A3024 RMK A01 T01810130  RH  072%=      5-min Rain = 0
KST3 140701Z 07009KT 18/13 A3024 RMK A01 T01820130  RH  072%=      5-min Rain = 0
KST3 140702Z 07009KT 18/13 A3024 RMK A01 T01810129  RH  071%=      5-min Rain = 0
KST3 140703Z 06008KT 18/13 A3024 RMK A01 T01820130  RH  072%=      5-min Rain = 0
KST3 140704Z 07009KT 18/13 A3024 RMK A01 T01820130  RH  072%=      5-min Rain = 0
KST3 140705Z 07009KT 18/13 A3024 RMK A01 T01810129  RH  072%=      5-min Rain = 0
KST3 140706Z 07009KT 18/13 A3024 RMK A01 T01810129  RH  071%=      5-min Rain = 0
KST3 140707Z 07008KT 18/13 A3024 RMK A01 T01810129  RH  072%=      5-min Rain = 0
KST3 140708Z 07008KT 18/13 A3024 RMK A01 T01810129  RH  072%=      5-min Rain = 0
KST3 140709Z 07008KT 18/13 A3024 RMK A01 T01810129  RH  072%=      5-min Rain = 0
KST3 140710Z 07008KT 18/13 A3024 RMK A01 T01810129  RH  072%=      5-min Rain = 0
KST3 140711Z 08008KT 18/13 A3024 RMK A01 T01810129  RH  071%=      5-min Rain = 0
KST3 140712Z 07006KT 18/13 A3024 RMK A01 T01810129  RH  072%=      5-min Rain = 0
KST3 140713Z 07006KT 18/13 A3024 RMK A01 T01810129  RH  072%=      5-min Rain = 0
KST3 140714Z 07007KT 18/13 A3024 RMK A01 T01810129  RH  072%=      5-min Rain = 0
KST3 140715Z 07008KT 18/13 A3024 RMK A01 T01810129  RH  072%=      5-min Rain = 0
KST3 140716Z 07008KT 18/13 A3024 RMK A01 T01810128  RH  071%=      5-min Rain = 0
KST3 140717Z 07007KT 18/13 A3024 RMK A01 T01810129  RH  072%=      5-min Rain = 0
KST3 140718Z 07007KT 18/13 A3024 RMK A01 T01810129  RH  072%=      5-min Rain = 0
KST3 140719Z 07007KT 18/13 A3024 RMK A01 T01800130  RH  072%=      5-min Rain = 0
KST3 140720Z 07007KT 18/13 A3024 RMK A01 T01800130  RH  072%=      5-min Rain = 0
KST3 140721Z 07006KT 18/13 A3024 RMK A01 T01800129  RH  072%=      5-min Rain = 0
KST3 140722Z 08007KT 18/13 A3024 RMK A01 T01800130  RH  072%=      5-min Rain = 0
KST3 140723Z 08007KT 18/13 A3024 RMK A01 T01800130  RH  072%=      5-min Rain = 0
KST3 140724Z 07007KT 18/13 A3024 RMK A01 T01810130  RH  072%=      5-min Rain = 0
KST3 140725Z 07006KT 18/13 A3024 RMK A01 T01800130  RH  072%=      5-min Rain = 0
KST3 140726Z 07007KT 18/13 A3024 RMK A01 T01800129  RH  072%=      5-min Rain = 0
KST3 140727Z 06007KT 18/13 A3024 RMK A01 T01800129  RH  072%=      5-min Rain = 0
KST3 140728Z 06007KT 18/13 A3024 RMK A01 T01800129  RH  072%=      5-min Rain = 0
KST3 140729Z 06006KT 18/13 A3024 RMK A01 T01800129  RH  072%=      5-min Rain = 0
KST3 140730Z 06006KT 18/13 A3024 RMK A01 T01790130  RH  073%=      5-min Rain = 0
KST3 140731Z 06006KT 18/13 A3024 RMK A01 T01790129  RH  073%=      5-min Rain = 0
KST3 140732Z 06006KT 18/13 A3023 RMK A01 T01780129  RH  073%=      5-min Rain = 0
KST3 140733Z 06006KT 18/13 A3023 RMK A01 T01780129  RH  073%=      5-min Rain = 0
KST3 140734Z 06007KT 18/13 A3023 RMK A01 T01770129  RH  073%=      5-min Rain = 0
KST3 140735Z 06006KT 18/13 A3023 RMK A01 T01780129  RH  073%=      5-min Rain = 0
KST3 140736Z 07006KT 18/13 A3023 RMK A01 T01770128  RH  073%=      5-min Rain = 0
KST3 140737Z 07006KT 18/13 A3023 RMK A01 T01770129  RH  073%=      5-min Rain = 0
KST3 140738Z 07006KT 18/13 A3023 RMK A01 T01780129  RH  073%=      5-min Rain = 0
KST3 140739Z 07007KT 18/13 A3023 RMK A01 T01780129  RH  073%=      5-min Rain = 0
KST3 140740Z 07006KT 18/13 A3023 RMK A01 T01770128  RH  073%=      5-min Rain = 0
KST3 140741Z 07007KT 18/13 A3023 RMK A01 T01780128  RH  073%=      5-min Rain = 0
KST3 140742Z 07007KT 18/13 A3023 RMK A01 T01780128  RH  073%=      5-min Rain = 0
KST3 140743Z 07007KT 18/13 A3023 RMK A01 T01780128  RH  072%=      5-min Rain = 0
KST3 140744Z 06007KT 18/13 A3023 RMK A01 T01780128  RH  072%=      5-min Rain = 0
KST3 140745Z 07006KT 18/13 A3023 RMK A01 T01780128  RH  072%=      5-min Rain = 0
KST3 140746Z 06007KT 18/13 A3023 RMK A01 T01780129  RH  073%=      5-min Rain = 0
KST3 140747Z 06006KT 18/13 A3023 RMK A01 T01770129  RH  073%=      5-min Rain = 0
KST3 140748Z 06006KT 18/13 A3023 RMK A01 T01770129  RH  073%=      5-min Rain = 0
KST3 140749Z 06005KT 18/13 A3023 RMK A01 T01760129  RH  074%=      5-min Rain = 0
KST3 140750Z 05005KT 18/13 A3024 RMK A01 T01760128  RH  074%=      5-min Rain = 0
KST3 140751Z 05007KT 18/13 A3024 RMK A01 T01760128  RH  073%=      5-min Rain = 0
KST3 140752Z 05006KT 18/13 A3024 RMK A01 T01760127  RH  073%=      5-min Rain = 0
KST3 140753Z 04005KT 18/13 A3024 RMK A01 T01760128  RH  073%=      5-min Rain = 0
KST3 140754Z 04005KT 18/13 A3024 RMK A01 T01760128  RH  073%=      5-min Rain = 0
KST3 140755Z 04005KT 18/13 A3025 RMK A01 T01760128  RH  074%=      5-min Rain = 0
KST3 140756Z 04005KT 18/13 A3025 RMK A01 T01750130  RH  075%=      5-min Rain = 0
KST3 140757Z 03005KT 17/13 A3025 RMK A01 T01740130  RH  075%=      5-min Rain = 0
KST3 140758Z 03006KT 17/13 A3025 RMK A01 T01730130  RH  076%=      5-min Rain = 0
KST3 140759Z 03007KT 17/13 A3025 RMK A01 T01720130  RH  076%=      5-min Rain = 0
KST3 140800Z 03007KT 17/13 A3025 RMK A01 T01720130  RH  076%=      5-min Rain = 0
KST3 140801Z 03007KT 17/13 A3025 RMK A01 T01720130  RH  076%=      5-min Rain = 0
KST3 140802Z 03007KT 17/13 A3025 RMK A01 T01730130  RH  076%=      5-min Rain = 0
KST3 140803Z 04007KT 17/13 A3025 RMK A01 T01740129  RH  075%=      5-min Rain = 0
KST3 140804Z 04006KT 18/13 A3024 RMK A01 T01750130  RH  075%=      5-min Rain = 0
KST3 140805Z 04007KT 18/13 A3024 RMK A01 T01760130  RH  074%=      5-min Rain = 0
KST3 140806Z 04007KT 18/13 A3024 RMK A01 T01770128  RH  073%=      5-min Rain = 0
KST3 140807Z 04008KT 18/13 A3024 RMK A01 T01780128  RH  073%=      5-min Rain = 0
KST3 140808Z 04008KT 18/13 A3024 RMK A01 T01790129  RH  072%=      5-min Rain = 0
KST3 140809Z 04008KT 18/13 A3024 RMK A01 T01790129  RH  072%=      5-min Rain = 0
KST3 140810Z 04008KT 18/13 A3024 RMK A01 T01790129  RH  072%=      5-min Rain = 0
KST3 140811Z 04008KT 18/13 A3024 RMK A01 T01790129  RH  072%=      5-min Rain = 0
KST3 140812Z 04008KT 18/13 A3024 RMK A01 T01790129  RH  073%=      5-min Rain = 0
KST3 140813Z 03009KT 18/13 A3024 RMK A01 T01780128  RH  073%=      5-min Rain = 0
KST3 140814Z 04008KT 18/13 A3024 RMK A01 T01780129  RH  073%=      5-min Rain = 0
KST3 140815Z 03008KT 18/13 A3024 RMK A01 T01780129  RH  073%=      5-min Rain = 0
KST3 140816Z 03009KT 18/13 A3024 RMK A01 T01780129  RH  073%=      5-min Rain = 0
KST3 140817Z 03008KT 18/13 A3024 RMK A01 T01780130  RH  073%=      5-min Rain = 0
KST3 140818Z 03008KT 18/13 A3024 RMK A01 T01780130  RH  074%=      5-min Rain = 0
KST3 140819Z 02009KT 18/13 A3024 RMK A01 T01780130  RH  074%=      5-min Rain = 0
KST3 140820Z 03008KT 18/13 A3024 RMK A01 T01770130  RH  074%=      5-min Rain = 0
KST3 140821Z 02008KT 18/13 A3024 RMK A01 T01770130  RH  074%=      5-min Rain = 0
KST3 140822Z 02007KT 18/13 A3024 RMK A01 T01770130  RH  074%=      5-min Rain = 0
KST3 140823Z 02008KT 18/13 A3025 RMK A01 T01770130  RH  074%=      5-min Rain = 0
KST3 140824Z 02007KT 18/13 A3025 RMK A01 T01770130  RH  074%=      5-min Rain = 0
KST3 140825Z 02008KT 18/13 A3025 RMK A01 T01770130  RH  074%=      5-min Rain = 0
KST3 140826Z 02008KT 18/13 A3025 RMK A01 T01770129  RH  074%=      5-min Rain = 0
KST3 140827Z 02008KT 18/13 A3025 RMK A01 T01770129  RH  073%=      5-min Rain = 0
KST3 140828Z 02008KT 18/13 A3024 RMK A01 T01780129  RH  073%=      5-min Rain = 0
KST3 140829Z 02008KT 18/13 A3024 RMK A01 T01780129  RH  073%=      5-min Rain = 0
KST3 140830Z 03007KT 18/13 A3024 RMK A01 T01780129  RH  073%=      5-min Rain = 0
KST3 140831Z 03007KT 18/13 A3024 RMK A01 T01780129  RH  073%=      5-min Rain = 0
KST3 140832Z 03007KT 18/13 A3024 RMK A01 T01780130  RH  073%=      5-min Rain = 0
KST3 140833Z 03007KT 18/13 A3024 RMK A01 T01780130  RH  073%=      5-min Rain = 0
KST3 140834Z 03007KT 18/13 A3024 RMK A01 T01780130  RH  073%=      5-min Rain = 0
KST3 140835Z 02009KT 18/13 A3024 RMK A01 T01790130  RH  073%=      5-min Rain = 0
KST3 140836Z 01012KT 18/13 A3025 RMK A01 T01780131  RH  074%=      5-min Rain = 0
KST3 140837Z 01011KT 18/13 A3025 RMK A01 T01780131  RH  074%=      5-min Rain = 0
KST3 140838Z 03008KT 18/13 A3024 RMK A01 T01790131  RH  074%=      5-min Rain = 0
KST3 140839Z 04007KT 18/13 A3024 RMK A01 T01790131  RH  073%=      5-min Rain = 0
KST3 140840Z 04007KT 18/13 A3024 RMK A01 T01800130  RH  073%=      5-min Rain = 0
KST3 140841Z 03008KT 18/13 A3024 RMK A01 T01800129  RH  072%=      5-min Rain = 0
KST3 140842Z 02010KT 18/13 A3025 RMK A01 T01800131  RH  073%=      5-min Rain = 0
KST3 140843Z 02011KT 18/13 A3025 RMK A01 T01800132  RH  073%=      5-min Rain = 0
KST3 140844Z 02011KT 18/13 A3025 RMK A01 T01800132  RH  073%=      5-min Rain = 0
KST3 140845Z 03009KT 18/13 A3024 RMK A01 T01800131  RH  073%=      5-min Rain = 0
KST3 140846Z 03009KT 18/13 A3024 RMK A01 T01800131  RH  073%=      5-min Rain = 0
KST3 140847Z 03009KT 18/13 A3024 RMK A01 T01810131  RH  073%=      5-min Rain = 0
KST3 140848Z 02011KT 18/13 A3024 RMK A01 T01810132  RH  073%=      5-min Rain = 0
KST3 140849Z 01013KT 18/13 A3025 RMK A01 T01810133  RH  074%=      5-min Rain = 0
KST3 140850Z 02012KT 18/13 A3025 RMK A01 T01810134  RH  074%=      5-min Rain = 0
KST3 140851Z 04008KT 18/13 A3024 RMK A01 T01810132  RH  073%=      5-min Rain = 0
KST3 140852Z 03007KT 18/13 A3024 RMK A01 T01810132  RH  073%=      5-min Rain = 0
KST3 140853Z 02008KT 18/13 A3024 RMK A01 T01810132  RH  073%=      5-min Rain = 0
KST3 140854Z 02010KT 18/13 A3025 RMK A01 T01810133  RH  074%=      5-min Rain = 0
KST3 140855Z 02010KT 18/13 A3025 RMK A01 T01810133  RH  074%=      5-min Rain = 0
KST3 140856Z 01008KT 18/13 A3025 RMK A01 T01810133  RH  073%=      5-min Rain = 0
KST3 140857Z 02008KT 18/13 A3025 RMK A01 T01810133  RH  073%=      5-min Rain = 0
KST3 140858Z 02008KT 18/13 A3025 RMK A01 T01810132  RH  073%=      5-min Rain = 0
KST3 140859Z 02007KT 18/13 A3025 RMK A01 T01810132  RH  073%=      5-min Rain = 0
KST3 140900Z 01007KT 18/13 A3025 RMK A01 T01810133  RH  073%=      5-min Rain = 0
KST3 140901Z 02006KT 18/13 A3025 RMK A01 T01810134  RH  074%=      5-min Rain = 0
KST3 140902Z 01006KT 18/13 A3025 RMK A01 T01810134  RH  074%=      5-min Rain = 0
KST3 140903Z 01008KT 18/13 A3025 RMK A01 T01800133  RH  074%=      5-min Rain = 0
KST3 140904Z 01007KT 18/13 A3026 RMK A01 T01800133  RH  074%=      5-min Rain = 0
KST3 140905Z 01007KT 18/13 A3026 RMK A01 T01800134  RH  074%=      5-min Rain = 0
KST3 140906Z 01007KT 18/13 A3026 RMK A01 T01800134  RH  075%=      5-min Rain = 0
KST3 140907Z 01007KT 18/14 A3026 RMK A01 T01800135  RH  075%=      5-min Rain = 0
KST3 140908Z 01007KT 18/14 A3026 RMK A01 T01790135  RH  075%=      5-min Rain = 0
KST3 140909Z 01008KT 18/14 A3026 RMK A01 T01790135  RH  075%=      5-min Rain = 0
KST3 140910Z 01007KT 18/14 A3026 RMK A01 T01790135  RH  076%=      5-min Rain = 0
KST3 140911Z 01007KT 18/14 A3026 RMK A01 T01790136  RH  076%=      5-min Rain = 0
KST3 140912Z 01006KT 18/14 A3026 RMK A01 T01790136  RH  076%=      5-min Rain = 0
KST3 140913Z 01006KT 18/14 A3026 RMK A01 T01790136  RH  076%=      5-min Rain = 0
KST3 140914Z 01006KT 18/14 A3026 RMK A01 T01780136  RH  076%=      5-min Rain = 0
KST3 140915Z 01005KT 18/14 A3026 RMK A01 T01790136  RH  076%=      5-min Rain = 0
KST3 140916Z 02005KT 18/14 A3026 RMK A01 T01780136  RH  076%=      5-min Rain = 0
KST3 140917Z 02005KT 18/14 A3026 RMK A01 T01780136  RH  076%=      5-min Rain = 0
KST3 140918Z 01006KT 18/14 A3026 RMK A01 T01780136  RH  076%=      5-min Rain = 0
KST3 140919Z 00009KT 18/14 A3027 RMK A01 T01780137  RH  077%=      5-min Rain = 0
KST3 140920Z 36017KT 18/14 A3028 RMK A01 T01780137  RH  077%=      5-min Rain = 0
KST3 140921Z 36016KT 18/14 A3028 RMK A01 T01780138  RH  077%=      5-min Rain = 0
KST3 140922Z 01009G14KT 18/14 A3027 RMK A01 T01780138  RH  077%=      5-min Rain = 0
KST3 140923Z 02007KT 18/14 A3026 RMK A01 T01780136  RH  077%=      5-min Rain = 0
KST3 140924Z 01007KT 18/14 A3026 RMK A01 T01780135  RH  076%=      5-min Rain = 0
KST3 140925Z 35015KT 18/14 A3028 RMK A01 T01780135  RH  076%=      5-min Rain = 0
KST3 140926Z 35017KT 18/14 A3028 RMK A01 T01780135  RH  076%=      5-min Rain = 0
KST3 140927Z 36014KT 18/14 A3028 RMK A01 T01790135  RH  076%=      5-min Rain = 0
KST3 140928Z 01006KT 18/14 A3026 RMK A01 T01780135  RH  075%=      5-min Rain = 0
KST3 140929Z 00009KT 18/14 A3027 RMK A01 T01780135  RH  075%=      5-min Rain = 0
KST3 140930Z 35014KT 18/14 A3028 RMK A01 T01780136  RH  076%=      5-min Rain = 0
KST3 140931Z 34016KT 18/14 A3028 RMK A01 T01790136  RH  076%=      5-min Rain = 0
KST3 140932Z 34016KT 18/14 A3028 RMK A01 T01780136  RH  076%=      5-min Rain = 0
KST3 140933Z 35008KT 18/14 A3027 RMK A01 T01790136  RH  076%=      5-min Rain = 0
KST3 140934Z 36011KT 18/14 A3027 RMK A01 T01790136  RH  076%=      5-min Rain = 0
KST3 140935Z 36012KT 18/14 A3028 RMK A01 T01790136  RH  076%=      5-min Rain = 0
KST3 140936Z 00013KT 18/14 A3028 RMK A01 T01790136  RH  076%=      5-min Rain = 0
KST3 140937Z 36012KT 18/14 A3028 RMK A01 T01790137  RH  076%=      5-min Rain = 0
KST3 140938Z 35011KT 18/14 A3028 RMK A01 T01790136  RH  076%=      5-min Rain = 0
KST3 140939Z 35013KT 18/14 A3028 RMK A01 T01790136  RH  076%=      5-min Rain = 0
KST3 140940Z 35011KT 18/14 A3028 RMK A01 T01790136  RH  076%=      5-min Rain = 0
KST3 140941Z 35012KT 18/14 A3028 RMK A01 T01800136  RH  076%=      5-min Rain = 0
KST3 140942Z 36010KT 18/14 A3028 RMK A01 T01790136  RH  076%=      5-min Rain = 0
KST3 140943Z 35009KT 18/14 A3027 RMK A01 T01790137  RH  076%=      5-min Rain = 0
KST3 140944Z 35010KT 18/14 A3028 RMK A01 T01790136  RH  076%=      5-min Rain = 0
KST3 140945Z 35010KT 18/14 A3028 RMK A01 T01790137  RH  076%=      5-min Rain = 0
KST3 140946Z 34010KT 18/14 A3028 RMK A01 T01790137  RH  076%=      5-min Rain = 0
KST3 140947Z 35008KT 18/14 A3027 RMK A01 T01790136  RH  076%=      5-min Rain = 0
KST3 140948Z 35009KT 18/14 A3028 RMK A01 T01790137  RH  076%=      5-min Rain = 0
KST3 140949Z 35009KT 18/14 A3027 RMK A01 T01790137  RH  076%=      5-min Rain = 0
KST3 140950Z 35008KT 18/14 A3027 RMK A01 T01790137  RH  076%=      5-min Rain = 0
KST3 140951Z 35008KT 18/14 A3027 RMK A01 T01780138  RH  077%=      5-min Rain = 0
KST3 140952Z 34010KT 18/14 A3027 RMK A01 T01780137  RH  077%=      5-min Rain = 0
KST3 140953Z 35009KT 18/14 A3027 RMK A01 T01780137  RH  077%=      5-min Rain = 0
KST3 140954Z 34010KT 18/14 A3027 RMK A01 T01780136  RH  076%=      5-min Rain = 0
KST3 140955Z 34009KT 18/14 A3027 RMK A01 T01780137  RH  077%=      5-min Rain = 0
KST3 140956Z 35009KT 18/14 A3027 RMK A01 T01780137  RH  077%=      5-min Rain = 0
KST3 140957Z 34010KT 18/14 A3027 RMK A01 T01780137  RH  077%=      5-min Rain = 0
KST3 140958Z 34009KT 18/14 A3027 RMK A01 T01780136  RH  076%=      5-min Rain = 0
KST3 140959Z 34009KT 18/14 A3027 RMK A01 T01780137  RH  077%=      5-min Rain = 0
KST3 141000Z 35008KT 18/14 A3027 RMK A01 T01780137  RH  077%=      5-min Rain = 0
KST3 141001Z 35008KT 18/14 A3027 RMK A01 T01780137  RH  077%=      5-min Rain = 0
KST3 141002Z 35006KT 18/14 A3027 RMK A01 T01780137  RH  077%=      5-min Rain = 0
KST3 141003Z 34008KT 18/14 A3027 RMK A01 T01780137  RH  077%=      5-min Rain = 0
KST3 141004Z 34007KT 18/14 A3027 RMK A01 T01780137  RH  077%=      5-min Rain = 0
KST3 141005Z 34008KT 18/14 A3027 RMK A01 T01780137  RH  077%=      5-min Rain = 0
KST3 141006Z 34007KT 18/14 A3027 RMK A01 T01780137  RH  077%=      5-min Rain = 0
KST3 141007Z 34007KT 18/14 A3027 RMK A01 T01790137  RH  077%=      5-min Rain = 0
KST3 141008Z 34006KT 18/14 A3027 RMK A01 T01780137  RH  076%=      5-min Rain = 0
KST3 141009Z 34006KT 18/14 A3027 RMK A01 T01780137  RH  077%=      5-min Rain = 0
KST3 141010Z 34005KT 18/14 A3027 RMK A01 T01790136  RH  076%=      5-min Rain = 0
KST3 141011Z 33005KT 18/14 A3027 RMK A01 T01790137  RH  076%=      5-min Rain = 0
KST3 141012Z 32005KT 18/14 A3027 RMK A01 T01790137  RH  076%=      5-min Rain = 0
KST3 141013Z 32007KT 18/14 A3027 RMK A01 T01790136  RH  076%=      5-min Rain = 0
KST3 141014Z 31006KT 18/14 A3027 RMK A01 T01800137  RH  076%=      5-min Rain = 0
KST3 141015Z 30005KT 18/14 A3027 RMK A01 T01800137  RH  076%=      5-min Rain = 0
KST3 141016Z 29007KT 18/14 A3027 RMK A01 T01800139  RH  077%=      5-min Rain = 0
KST3 141017Z 29008KT 18/14 A3027 RMK A01 T01800141  RH  078%=      5-min Rain = 0
KST3 141018Z 30009KT 18/14 A3027 RMK A01 T01790142  RH  079%=      5-min Rain = 0
KST3 141019Z 32009KT 18/14 A3027 RMK A01 T01790140  RH  078%=      5-min Rain = 0
KST3 141020Z 32008KT 18/14 A3027 RMK A01 T01800139  RH  077%=      5-min Rain = 0
KST3 141021Z 32012KT 18/14 A3027 RMK A01 T01820139  RH  076%=      5-min Rain = 0
KST3 141022Z 32012KT 18/14 A3027 RMK A01 T01840140  RH  075%=      5-min Rain = 0
KST3 141023Z 34010KT 18/14 A3027 RMK A01 T01840140  RH  075%=      5-min Rain = 0
KST3 141024Z 35009KT 18/14 A3027 RMK A01 T01840139  RH  075%=      5-min Rain = 0
KST3 141025Z 35010KT 19/14 A3027 RMK A01 T01850139  RH  074%=      5-min Rain = 0
KST3 141026Z 35009KT 19/14 A3026 RMK A01 T01860137  RH  073%=      5-min Rain = 0
KST3 141027Z 36008KT 19/14 A3026 RMK A01 T01880137  RH  072%=      5-min Rain = 0
KST3 141028Z 36007KT 19/14 A3026 RMK A01 T01890137  RH  072%=      5-min Rain = 0
KST3 141029Z 34008KT 19/14 A3026 RMK A01 T01890139  RH  072%=      5-min Rain = 0
KST3 141030Z 33008KT 19/14 A3026 RMK A01 T01900139  RH  072%=      5-min Rain = 0
KST3 141031Z 33007KT 19/14 A3026 RMK A01 T01890140  RH  073%=      5-min Rain = 0
KST3 141032Z 32007KT 19/14 A3026 RMK A01 T01890140  RH  073%=      5-min Rain = 0
KST3 141033Z 31007KT 19/14 A3026 RMK A01 T01890140  RH  073%=      5-min Rain = 0
KST3 141034Z 31008KT 19/14 A3026 RMK A01 T01890141  RH  073%=      5-min Rain = 0
KST3 141035Z 31010KT 19/14 A3026 RMK A01 T01890141  RH  074%=      5-min Rain = 0
KST3 141036Z 32010KT 19/14 A3026 RMK A01 T01890141  RH  074%=      5-min Rain = 0
KST3 141037Z 32009KT 19/14 A3026 RMK A01 T01900141  RH  073%=      5-min Rain = 0
KST3 141038Z 32009KT 19/14 A3026 RMK A01 T01910142  RH  073%=      5-min Rain = 0
KST3 141039Z 33009KT 19/14 A3026 RMK A01 T01910143  RH  074%=      5-min Rain = 0
KST3 141040Z 32009KT 19/14 A3026 RMK A01 T01910144  RH  074%=      5-min Rain = 0
KST3 141041Z 31009KT 19/14 A3026 RMK A01 T01910143  RH  074%=      5-min Rain = 0
KST3 141042Z 32009KT 19/14 A3025 RMK A01 T01910144  RH  074%=      5-min Rain = 0
KST3 141043Z 32008KT 19/14 A3025 RMK A01 T01910144  RH  074%=      5-min Rain = 0
KST3 141044Z 32009KT 19/14 A3025 RMK A01 T01910144  RH  074%=      5-min Rain = 0
KST3 141045Z 31008KT 19/14 A3025 RMK A01 T01900144  RH  074%=      5-min Rain = 0
KST3 141046Z 30008KT 19/15 A3025 RMK A01 T01900145  RH  075%=      5-min Rain = 0
KST3 141047Z 30009KT 19/15 A3025 RMK A01 T01890146  RH  076%=      5-min Rain = 0
KST3 141048Z 30007KT 19/15 A3025 RMK A01 T01880148  RH  077%=      5-min Rain = 0
KST3 141049Z 29008KT 19/15 A3025 RMK A01 T01860148  RH  078%=      5-min Rain = 0
KST3 141050Z 29009KT 18/15 A3025 RMK A01 T01840149  RH  080%=      5-min Rain = 0
KST3 141051Z 29009KT 18/15 A3025 RMK A01 T01830149  RH  081%=      5-min Rain = 0
KST3 141052Z 28010KT 18/15 A3025 RMK A01 T01810150  RH  082%=      5-min Rain = 0
KST3 141053Z 28010KT 18/15 A3025 RMK A01 T01800151  RH  083%=      5-min Rain = 0
KST3 141054Z 28012KT 18/15 A3025 RMK A01 T01780151  RH  084%=      5-min Rain = 0
KST3 141055Z 29012KT 18/15 A3025 RMK A01 T01760150  RH  085%=      5-min Rain = 0
KST3 141056Z 30012KT 18/15 A3026 RMK A01 T01750151  RH  085%=      5-min Rain = 0
KST3 141057Z 32011KT 17/15 A3026 RMK A01 T01740151  RH  087%=      5-min Rain = 0.01
KST3 141058Z 31010KT 17/15 A3026 RMK A01 T01730153  RH  088%=      5-min Rain = 0
KST3 141059Z 31010KT 17/15 A3026 RMK A01 T01720153  RH  089%=      5-min Rain = 0
KST3 141100Z 30011KT 17/15 A3026 RMK A01 T01720153  RH  089%=      5-min Rain = 0
KST3 141101Z 30013KT 17/15 A3026 RMK A01 T01710152  RH  088%=      5-min Rain = 0
KST3 141102Z 30013KT 17/15 A3026 RMK A01 T01720151  RH  088%=      5-min Rain = 0
KST3 141103Z 30013KT 17/15 A3026 RMK A01 T01730150  RH  086%=      5-min Rain = 0
KST3 141104Z 29011KT 17/15 A3026 RMK A01 T01740152  RH  087%=      5-min Rain = 0.01
KST3 141105Z 30012KT 17/15 A3026 RMK A01 T01740153  RH  087%=      5-min Rain = 0
KST3 141106Z 30012KT 17/15 A3026 RMK A01 T01730152  RH  087%=      5-min Rain = 0
KST3 141107Z 30013KT 17/15 A3026 RMK A01 T01740150  RH  086%=      5-min Rain = 0
KST3 141108Z 30011KT 18/15 A3026 RMK A01 T01750149  RH  085%=      5-min Rain = 0
KST3 141109Z 31012KT 18/15 A3025 RMK A01 T01750150  RH  085%=      5-min Rain = 0
KST3 141110Z 31014KT 18/15 A3025 RMK A01 T01760149  RH  084%=      5-min Rain = 0
KST3 141111Z 31013KT 18/15 A3025 RMK A01 T01770148  RH  083%=      5-min Rain = 0
KST3 141112Z 31016KT 18/15 A3026 RMK A01 T01780150  RH  083%=      5-min Rain = 0
KST3 141113Z 32016KT 18/15 A3026 RMK A01 T01780151  RH  084%=      5-min Rain = 0
KST3 141114Z 32015KT 18/15 A3026 RMK A01 T01770152  RH  085%=      5-min Rain = 0.01
KST3 141115Z 32016KT 18/15 A3026 RMK A01 T01760153  RH  086%=      5-min Rain = 0
KST3 141116Z 32015KT 18/15 A3026 RMK A01 T01750153  RH  087%=      5-min Rain = 0
KST3 141117Z 32016KT 18/15 A3026 RMK A01 T01750154  RH  087%=      5-min Rain = 0
KST3 141118Z 32017KT 18/15 A3026 RMK A01 T01750153  RH  087%=      5-min Rain = 0
KST3 141119Z 32015KT 18/15 A3026 RMK A01 T01750152  RH  087%=      5-min Rain = 0
KST3 141120Z 32015KT 18/15 A3026 RMK A01 T01760153  RH  086%=      5-min Rain = 0
KST3 141121Z 32015KT 18/15 A3026 RMK A01 T01760152  RH  086%=      5-min Rain = 0
KST3 141122Z 32015KT 18/15 A3026 RMK A01 T01770148  RH  083%=      5-min Rain = 0
KST3 141123Z 32015KT 18/15 A3026 RMK A01 T01800146  RH  080%=      5-min Rain = 0
KST3 141124Z 33016KT 18/15 A3026 RMK A01 T01820145  RH  079%=      5-min Rain = 0
KST3 141125Z 32015KT 19/14 A3026 RMK A01 T01850143  RH  077%=      5-min Rain = 0
KST3 141126Z 33016KT 19/14 A3026 RMK A01 T01860144  RH  077%=      5-min Rain = 0
KST3 141127Z 33015KT 19/14 A3026 RMK A01 T01860144  RH  077%=      5-min Rain = 0
KST3 141128Z 33015KT 19/14 A3026 RMK A01 T01860143  RH  076%=      5-min Rain = 0
KST3 141129Z 33015KT 19/15 A3026 RMK A01 T01870145  RH  076%=      5-min Rain = 0
KST3 141130Z 33014KT 19/14 A3026 RMK A01 T01870144  RH  076%=      5-min Rain = 0
KST3 141131Z 32014KT 19/14 A3026 RMK A01 T01870143  RH  076%=      5-min Rain = 0
KST3 141132Z 32014KT 19/14 A3026 RMK A01 T01870143  RH  075%=      5-min Rain = 0
KST3 141133Z 32013KT 19/14 A3026 RMK A01 T01880140  RH  074%=      5-min Rain = 0
KST3 141134Z 32014KT 19/14 A3026 RMK A01 T01880141  RH  074%=      5-min Rain = 0
KST3 141135Z 32014KT 19/14 A3026 RMK A01 T01890140  RH  073%=      5-min Rain = 0
KST3 141136Z 31014KT 19/14 A3026 RMK A01 T01890141  RH  074%=      5-min Rain = 0
KST3 141137Z 31013KT 19/14 A3026 RMK A01 T01890144  RH  075%=      5-min Rain = 0
KST3 141138Z 31014KT 19/14 A3026 RMK A01 T01880143  RH  075%=      5-min Rain = 0
KST3 141139Z 31014KT 19/14 A3026 RMK A01 T01880143  RH  075%=      5-min Rain = 0.01
KST3 141140Z 31012KT 19/14 A3026 RMK A01 T01890142  RH  074%=      5-min Rain = 0
KST3 141141Z 30011KT 19/14 A3026 RMK A01 T01900144  RH  075%=      5-min Rain = 0
KST3 141142Z 30013KT 19/15 A3026 RMK A01 T01900146  RH  075%=      5-min Rain = 0
KST3 141143Z 30014KT 19/15 A3026 RMK A01 T01890147  RH  077%=      5-min Rain = 0
KST3 141144Z 29014KT 19/15 A3026 RMK A01 T01880149  RH  078%=      5-min Rain = 0
KST3 141145Z 30013KT 19/15 A3026 RMK A01 T01870148  RH  078%=      5-min Rain = 0
KST3 141146Z 30014KT 19/15 A3026 RMK A01 T01870146  RH  077%=      5-min Rain = 0
KST3 141147Z 30014KT 19/15 A3026 RMK A01 T01880146  RH  076%=      5-min Rain = 0
KST3 141148Z 30014KT 19/14 A3026 RMK A01 T01900144  RH  075%=      5-min Rain = 0
KST3 141149Z 30014KT 19/14 A3026 RMK A01 T01910144  RH  074%=      5-min Rain = 0
KST3 141150Z 30014KT 19/15 A3026 RMK A01 T01920145  RH  074%=      5-min Rain = 0
KST3 141151Z 30013KT 19/15 A3026 RMK A01 T01920147  RH  075%=      5-min Rain = 0
KST3 141152Z 30014KT 19/15 A3026 RMK A01 T01910148  RH  076%=      5-min Rain = 0
KST3 141153Z 30014KT 19/15 A3026 RMK A01 T01910149  RH  077%=      5-min Rain = 0
KST3 141154Z 30014KT 19/15 A3026 RMK A01 T01900149  RH  077%=      5-min Rain = 0
KST3 141155Z 30013KT 19/15 A3026 RMK A01 T01900150  RH  078%=      5-min Rain = 0
KST3 141156Z 29013KT 19/15 A3026 RMK A01 T01900151  RH  078%=      5-min Rain = 0
KST3 141157Z 29014KT 19/15 A3026 RMK A01 T01890152  RH  079%=      5-min Rain = 0
KST3 141158Z 29014KT 19/15 A3026 RMK A01 T01890151  RH  079%=      5-min Rain = 0
KST3 141159Z 29013KT 19/15 A3026 RMK A01 T01880152  RH  079%=      5-min Rain = 0
KST3 141200Z 29013KT 19/15 A3026 RMK A01 T01880152  RH  079%=      5-min Rain = 0
KST3 141201Z 29012KT 19/15 A3026 RMK A01 T01880152  RH  080%=      5-min Rain = 0
KST3 141202Z 29012KT 19/15 A3026 RMK A01 T01880153  RH  080%=      5-min Rain = 0
KST3 141203Z 29012KT 19/15 A3026 RMK A01 T01880153  RH  081%=      5-min Rain = 0
KST3 141204Z 28012KT 19/15 A3026 RMK A01 T01870154  RH  081%=      5-min Rain = 0
KST3 141205Z 29012KT 19/16 A3026 RMK A01 T01870155  RH  082%=      5-min Rain = 0
KST3 141206Z 29012KT 19/16 A3026 RMK A01 T01860155  RH  082%=      5-min Rain = 0
KST3 141207Z 29012KT 19/16 A3026 RMK A01 T01860156  RH  083%=      5-min Rain = 0
KST3 141208Z 29012KT 19/15 A3026 RMK A01 T01850153  RH  082%=      5-min Rain = 0
KST3 141209Z 29013KT 19/15 A3026 RMK A01 T01860153  RH  081%=      5-min Rain = 0
KST3 141210Z 29012KT 19/15 A3026 RMK A01 T01860153  RH  081%=      5-min Rain = 0
KST3 141211Z 28013KT 19/15 A3026 RMK A01 T01860152  RH  081%=      5-min Rain = 0
KST3 141212Z 28013KT 19/15 A3026 RMK A01 T01860151  RH  080%=      5-min Rain = 0
KST3 141213Z 29014KT 19/15 A3026 RMK A01 T01860152  RH  080%=      5-min Rain = 0
KST3 141214Z 29015KT 19/15 A3026 RMK A01 T01860151  RH  080%=      5-min Rain = 0
KST3 141215Z 29016KT 19/15 A3026 RMK A01 T01860150  RH  079%=      5-min Rain = 0
KST3 141216Z 29015KT 19/15 A3026 RMK A01 T01870151  RH  080%=      5-min Rain = 0
KST3 141217Z 30015KT 19/15 A3026 RMK A01 T01860153  RH  081%=      5-min Rain = 0
KST3 141218Z 30015KT 19/15 A3026 RMK A01 T01850153  RH  081%=      5-min Rain = 0
KST3 141219Z 30015KT 19/15 A3026 RMK A01 T01850153  RH  082%=      5-min Rain = 0
KST3 141220Z 30015KT 19/16 A3026 RMK A01 T01850155  RH  083%=      5-min Rain = 0
KST3 141221Z 30015KT 18/16 A3026 RMK A01 T01840156  RH  084%=      5-min Rain = 0
KST3 141222Z 30014KT 18/16 A3026 RMK A01 T01840156  RH  084%=      5-min Rain = 0
KST3 141223Z 30015KT 18/16 A3026 RMK A01 T01830157  RH  085%=      5-min Rain = 0
KST3 141224Z 30015KT 18/16 A3026 RMK A01 T01830158  RH  085%=      5-min Rain = 0
KST3 141225Z 30014KT 18/16 A3026 RMK A01 T01830158  RH  086%=      5-min Rain = 0
KST3 141226Z 29013KT 18/16 A3026 RMK A01 T01820158  RH  086%=      5-min Rain = 0
KST3 141227Z 30014KT 18/16 A3026 RMK A01 T01820159  RH  086%=      5-min Rain = 0
KST3 141228Z 29015KT 18/16 A3026 RMK A01 T01820158  RH  086%=      5-min Rain = 0
KST3 141229Z 29013KT 18/16 A3026 RMK A01 T01820158  RH  086%=      5-min Rain = 0
KST3 141230Z 29014KT 18/16 A3026 RMK A01 T01820159  RH  087%=      5-min Rain = 0
KST3 141231Z 29012KT 18/16 A3026 RMK A01 T01810158  RH  086%=      5-min Rain = 0
KST3 141232Z 29013KT 18/16 A3025 RMK A01 T01810158  RH  087%=      5-min Rain = 0
KST3 141233Z 30012KT 18/16 A3025 RMK A01 T01810158  RH  086%=      5-min Rain = 0
KST3 141234Z 29012KT 18/16 A3025 RMK A01 T01810158  RH  087%=      5-min Rain = 0
KST3 141235Z 29012KT 18/16 A3025 RMK A01 T01810158  RH  087%=      5-min Rain = 0
KST3 141236Z 29013KT 18/16 A3025 RMK A01 T01810157  RH  086%=      5-min Rain = 0
KST3 141237Z 29013KT 18/16 A3025 RMK A01 T01810157  RH  086%=      5-min Rain = 0
KST3 141238Z 29014KT 18/16 A3025 RMK A01 T01810156  RH  085%=      5-min Rain = 0
KST3 141239Z 29014KT 18/16 A3025 RMK A01 T01820157  RH  085%=      5-min Rain = 0
KST3 141240Z 29014KT 18/16 A3025 RMK A01 T01820156  RH  085%=      5-min Rain = 0
KST3 141241Z 29013KT 18/16 A3025 RMK A01 T01830156  RH  084%=      5-min Rain = 0
KST3 141242Z 29013KT 18/16 A3025 RMK A01 T01830156  RH  084%=      5-min Rain = 0
KST3 141243Z 29012KT 18/16 A3025 RMK A01 T01830155  RH  084%=      5-min Rain = 0
KST3 141244Z 29012KT 18/16 A3025 RMK A01 T01830155  RH  083%=      5-min Rain = 0
KST3 141245Z 29011KT 18/16 A3025 RMK A01 T01840155  RH  083%=      5-min Rain = 0
KST3 141246Z 29010KT 18/16 A3025 RMK A01 T01840155  RH  083%=      5-min Rain = 0
KST3 141247Z 29010KT 18/15 A3024 RMK A01 T01840154  RH  083%=      5-min Rain = 0
KST3 141248Z 28010KT 18/16 A3024 RMK A01 T01840155  RH  083%=      5-min Rain = 0
KST3 141249Z 27009KT 18/15 A3024 RMK A01 T01840154  RH  082%=      5-min Rain = 0
KST3 141250Z 26011KT 19/15 A3023 RMK A01 T01850152  RH  081%=      5-min Rain = 0
KST3 141251Z 25011KT 19/15 A3023 RMK A01 T01860151  RH  080%=      5-min Rain = 0
KST3 141252Z 23012KT 19/15 A3022 RMK A01 T01870152  RH  080%=      5-min Rain = 0
KST3 141253Z 22012KT 19/15 A3022 RMK A01 T01870153  RH  081%=      5-min Rain = 0
KST3 141254Z 21013KT 19/15 A3021 RMK A01 T01870154  RH  081%=      5-min Rain = 0
KST3 141255Z 20015KT 19/15 A302 RMK A01 T01880147  RH  077%=      5-min Rain = 0
KST3 141256Z 19016KT 19/14 A3019 RMK A01 T01940141  RH  072%=      5-min Rain = 0
KST3 141257Z 19018KT 20/14 A3018 RMK A01 T01980143  RH  071%=      5-min Rain = 0
KST3 141258Z 18018KT 20/14 A3017 RMK A01 T01990142  RH  069%=      5-min Rain = 0
KST3 141259Z 18018KT 20/14 A3017 RMK A01 T02000143  RH  070%=      5-min Rain = 0
KST3 141300Z 17015KT 20/15 A3016 RMK A01 T01990146  RH  071%=      5-min Rain = 0
KST3 141301Z 18016KT 20/14 A3016 RMK A01 T01980143  RH  071%=      5-min Rain = 0
KST3 141302Z 18015KT 20/14 A3016 RMK A01 T02000140  RH  068%=      5-min Rain = 0
KST3 141303Z 18014KT 20/14 A3016 RMK A01 T02030142  RH  068%=      5-min Rain = 0
KST3 141304Z 16011KT 21/14 A3016 RMK A01 T02050141  RH  067%=      5-min Rain = 0
KST3 141305Z 15006KT 21/14 A3017 RMK A01 T02050142  RH  067%=      5-min Rain = 0
KST3 141306Z 14004KT 21/14 A3017 RMK A01 T02050143  RH  067%=      5-min Rain = 0
KST3 141307Z 15004KT 21/14 A3017 RMK A01 T02050144  RH  068%=      5-min Rain = 0
KST3 141308Z 18007G12KT 21/14 A3018 RMK A01 T02050143  RH  068%=      5-min Rain = 0
KST3 141309Z 18011KT 21/14 A3018 RMK A01 T02050139  RH  066%=      5-min Rain = 0
KST3 141310Z 18012G17KT 21/14 A3018 RMK A01 T02090136  RH  063%=      5-min Rain = 0
KST3 141311Z 18012KT 21/14 A3018 RMK A01 T02120135  RH  061%=      5-min Rain = 0
KST3 141312Z 18011KT 22/13 A3018 RMK A01 T02150134  RH  060%=      5-min Rain = 0
KST3 141313Z 18012KT 22/13 A3018 RMK A01 T02170132  RH  058%=      5-min Rain = 0
KST3 141314Z 17011KT 22/13 A3018 RMK A01 T02210129  RH  056%=      5-min Rain = 0
KST3 141315Z 16010KT 22/13 A3018 RMK A01 T02240130  RH  055%=      5-min Rain = 0
KST3 141316Z 16010KT 23/13 A3018 RMK A01 T02250131  RH  055%=      5-min Rain = 0
KST3 141317Z 16008KT 23/13 A3018 RMK A01 T02250133  RH  056%=      5-min Rain = 0
KST3 141318Z 17008KT 22/13 A3018 RMK A01 T02240132  RH  056%=      5-min Rain = 0
KST3 141319Z 16008KT 23/13 A3019 RMK A01 T02250128  RH  054%=      5-min Rain = 0
KST3 141320Z 16009KT 23/13 A3019 RMK A01 T02270126  RH  053%=      5-min Rain = 0
KST3 141321Z 15009KT 23/12 A3019 RMK A01 T02310121  RH  050%=      5-min Rain = 0
KST3 141322Z 15007KT 23/12 A3019 RMK A01 T02340123  RH  050%=      5-min Rain = 0
KST3 141323Z 15006KT 24/12 A302 RMK A01 T02360122  RH  049%=      5-min Rain = 0
KST3 141324Z 12005KT 24/12 A302 RMK A01 T02380115  RH  046%=      5-min Rain = 0
KST3 141325Z 15006KT 24/11 A302 RMK A01 T02420111  RH  044%=      5-min Rain = 0
KST3 141326Z 14005KT 25/11 A302 RMK A01 T02480106  RH  041%=      5-min Rain = 0
KST3 141327Z 15001KT 25/11 A302 RMK A01 T02530107  RH  040%=      5-min Rain = 0
KST3 141328Z 14000KT 26/12 A302 RMK A01 T02550116  RH  042%=      5-min Rain = 0
KST3 141329Z 31000KT 25/12 A3021 RMK A01 T02540115  RH  042%=      5-min Rain = 0
KST3 141330Z 30006KT 25/12 A3021 RMK A01 T02520122  RH  044%=      5-min Rain = 0
KST3 141331Z 30004KT 25/13 A3021 RMK A01 T02460128  RH  048%=      5-min Rain = 0
KST3 141332Z 32003KT 24/13 A3021 RMK A01 T02410130  RH  050%=      5-min Rain = 0
KST3 141333Z 31003KT 24/14 A3021 RMK A01 T02370135  RH  053%=      5-min Rain = 0
KST3 141334Z 30004KT 23/14 A3021 RMK A01 T02330137  RH  055%=      5-min Rain = 0
KST3 141335Z 29006KT 23/14 A3021 RMK A01 T02290139  RH  057%=      5-min Rain = 0
KST3 141336Z 26004KT 23/14 A3021 RMK A01 T02270135  RH  056%=      5-min Rain = 0
KST3 141337Z 25002KT 23/13 A302 RMK A01 T02270131  RH  054%=      5-min Rain = 0
KST3 141338Z 25000KT 23/12 A302 RMK A01 T02290118  RH  049%=      5-min Rain = 0
KST3 141339Z 30001KT 23/12 A302 RMK A01 T02340120  RH  049%=      5-min Rain = 0
KST3 141340Z 34002KT 24/12 A3021 RMK A01 T02360119  RH  048%=      5-min Rain = 0
KST3 141341Z 35005KT 24/13 A3021 RMK A01 T02380134  RH  052%=      5-min Rain = 0
KST3 141342Z 34008KT 24/14 A3021 RMK A01 T02350138  RH  054%=      5-min Rain = 0
KST3 141343Z 34009KT 23/14 A3021 RMK A01 T02330136  RH  055%=      5-min Rain = 0
KST3 141344Z 34012KT 23/14 A3021 RMK A01 T02310138  RH  056%=      5-min Rain = 0
KST3 141345Z 33015KT 23/14 A3022 RMK A01 T02280140  RH  058%=      5-min Rain = 0
KST3 141346Z 34012KT 22/15 A3022 RMK A01 T02220145  RH  062%=      5-min Rain = 0
KST3 141347Z 33010KT 22/15 A3022 RMK A01 T02180147  RH  064%=      5-min Rain = 0
KST3 141348Z 33012KT 21/15 A3022 RMK A01 T02140149  RH  066%=      5-min Rain = 0
KST3 141349Z 34011KT 21/15 A3022 RMK A01 T02120149  RH  067%=      5-min Rain = 0
KST3 141350Z 33010KT 21/15 A3021 RMK A01 T02100149  RH  068%=      5-min Rain = 0
KST3 141351Z 33011KT 21/15 A3021 RMK A01 T02100149  RH  068%=      5-min Rain = 0
KST3 141352Z 33013KT 21/15 A3021 RMK A01 T02100148  RH  068%=      5-min Rain = 0
KST3 141353Z 33012KT 21/15 A3021 RMK A01 T02100148  RH  068%=      5-min Rain = 0
KST3 141354Z 34011KT 21/15 A3021 RMK A01 T02090147  RH  068%=      5-min Rain = 0
KST3 141355Z 35011KT 21/15 A3021 RMK A01 T02090148  RH  068%=      5-min Rain = 0
KST3 141356Z 35010KT 21/15 A3021 RMK A01 T02080148  RH  068%=      5-min Rain = 0
KST3 141357Z 34010KT 21/15 A3022 RMK A01 T02080148  RH  069%=      5-min Rain = 0
KST3 141358Z 34009KT 21/15 A3022 RMK A01 T02080149  RH  069%=      5-min Rain = 0
KST3 141359Z 34009KT 21/15 A3022 RMK A01 T02080150  RH  069%=      5-min Rain = 0
KST3 141400Z 34010KT 21/15 A3022 RMK A01 T02080148  RH  069%=      5-min Rain = 0
KST3 141401Z 34009KT 21/15 A3022 RMK A01 T02080149  RH  069%=      5-min Rain = 0
KST3 141402Z 34010KT 21/15 A3023 RMK A01 T02080149  RH  069%=      5-min Rain = 0
KST3 141403Z 00016KT 21/15 A3024 RMK A01 T02090152  RH  070%=      5-min Rain = 0
KST3 141404Z 36019KT 21/15 A3025 RMK A01 T02080154  RH  071%=      5-min Rain = 0
KST3 141405Z 00022G27KT 21/15 A3025 RMK A01 T02060151  RH  070%=      5-min Rain = 0
KST3 141406Z 01021KT 21/15 A3025 RMK A01 T02050150  RH  070%=      5-min Rain = 0
KST3 141407Z 36017KT 20/15 A3024 RMK A01 T02040150  RH  071%=      5-min Rain = 0
KST3 141408Z 35016KT 20/15 A3024 RMK A01 T02040146  RH  069%=      5-min Rain = 0
KST3 141409Z 35017KT 21/14 A3025 RMK A01 T02060144  RH  068%=      5-min Rain = 0
KST3 141410Z 01018G23KT 21/15 A3026 RMK A01 T02060149  RH  069%=      5-min Rain = 0
KST3 141411Z 01019KT 21/15 A3026 RMK A01 T02060148  RH  069%=      5-min Rain = 0
KST3 141412Z 01018KT 21/15 A3026 RMK A01 T02060148  RH  070%=      5-min Rain = 0
KST3 141413Z 01017KT 21/15 A3026 RMK A01 T02060147  RH  069%=      5-min Rain = 0
KST3 141414Z 01016KT 21/15 A3025 RMK A01 T02060148  RH  069%=      5-min Rain = 0
KST3 141415Z 00014KT 21/15 A3025 RMK A01 T02060150  RH  070%=      5-min Rain = 0
KST3 141416Z 00013KT 21/15 A3025 RMK A01 T02060149  RH  070%=      5-min Rain = 0
KST3 141417Z 36011KT 21/15 A3025 RMK A01 T02060148  RH  069%=      5-min Rain = 0
KST3 141418Z 35011KT 21/15 A3025 RMK A01 T02060147  RH  069%=      5-min Rain = 0
KST3 141419Z 00012KT 21/15 A3026 RMK A01 T02070149  RH  069%=      5-min Rain = 0
KST3 141420Z 01015KT 21/15 A3026 RMK A01 T02070152  RH  071%=      5-min Rain = 0
KST3 141421Z 01015KT 21/15 A3026 RMK A01 T02070152  RH  070%=      5-min Rain = 0
KST3 141422Z 01014KT 21/15 A3027 RMK A01 T02070152  RH  071%=      5-min Rain = 0
KST3 141423Z 01014KT 21/15 A3027 RMK A01 T02060152  RH  071%=      5-min Rain = 0
KST3 141424Z 01010KT 21/15 A3027 RMK A01 T02060152  RH  071%=      5-min Rain = 0
KST3 141425Z 01008KT 21/15 A3027 RMK A01 T02060153  RH  071%=      5-min Rain = 0
KST3 141426Z 01011KT 21/15 A3027 RMK A01 T02060151  RH  071%=      5-min Rain = 0
KST3 141427Z 01011KT 21/15 A3028 RMK A01 T02070150  RH  070%=      5-min Rain = 0
KST3 141428Z 02010KT 21/15 A3028 RMK A01 T02080154  RH  071%=      5-min Rain = 0
KST3 141429Z 02013KT 21/15 A3029 RMK A01 T02080153  RH  071%=      5-min Rain = 0
KST3 141430Z 02010KT 21/15 A3029 RMK A01 T02080152  RH  070%=      5-min Rain = 0
KST3 141431Z 02012KT 21/15 A3029 RMK A01 T02090152  RH  070%=      5-min Rain = 0
KST3 141432Z 02015KT 21/15 A3029 RMK A01 T02090149  RH  069%=      5-min Rain = 0
KST3 141433Z 02014KT 21/15 A3029 RMK A01 T02090150  RH  069%=      5-min Rain = 0
KST3 141434Z 03014KT 21/15 A3029 RMK A01 T02080150  RH  069%=      5-min Rain = 0
KST3 141435Z 03013KT 21/15 A3029 RMK A01 T02080148  RH  069%=      5-min Rain = 0
KST3 141436Z 02012KT 21/15 A3029 RMK A01 T02080152  RH  070%=      5-min Rain = 0
KST3 141437Z 02011KT 21/15 A3029 RMK A01 T02080151  RH  070%=      5-min Rain = 0
KST3 141438Z 02012KT 21/15 A3029 RMK A01 T02070151  RH  070%=      5-min Rain = 0
KST3 141439Z 02012KT 21/15 A3029 RMK A01 T02070152  RH  071%=      5-min Rain = 0
KST3 141440Z 03011KT 21/15 A303 RMK A01 T02070153  RH  071%=      5-min Rain = 0
KST3 141441Z 03010KT 21/15 A303 RMK A01 T02070153  RH  071%=      5-min Rain = 0
KST3 141442Z 02009KT 21/16 A303 RMK A01 T02070155  RH  072%=      5-min Rain = 0
KST3 141443Z 01011KT 21/15 A3029 RMK A01 T02070154  RH  072%=      5-min Rain = 0
KST3 141444Z 01011G16KT 21/15 A3029 RMK A01 T02070154  RH  071%=      5-min Rain = 0
KST3 141445Z 01016KT 21/16 A3029 RMK A01 T02070156  RH  072%=      5-min Rain = 0
KST3 141446Z 01016KT 21/16 A3029 RMK A01 T02060155  RH  072%=      5-min Rain = 0
KST3 141447Z 01014KT 21/16 A3029 RMK A01 T02050157  RH  074%=      5-min Rain = 0
KST3 141448Z 02013KT 20/16 A3029 RMK A01 T02040157  RH  074%=      5-min Rain = 0
KST3 141449Z 02016KT 20/16 A303 RMK A01 T02040157  RH  075%=      5-min Rain = 0
KST3 141450Z 02015G20KT 20/16 A303 RMK A01 T02030156  RH  075%=      5-min Rain = 0
KST3 141451Z 02014KT 20/16 A303 RMK A01 T02020158  RH  076%=      5-min Rain = 0
KST3 141452Z 03014KT 20/16 A303 RMK A01 T02020158  RH  076%=      5-min Rain = 0
KST3 141453Z 03014KT 20/16 A303 RMK A01 T02010158  RH  076%=      5-min Rain = 0
KST3 141454Z 03013KT 20/16 A303 RMK A01 T02010158  RH  076%=      5-min Rain = 0
KST3 141455Z 02011KT 20/16 A303 RMK A01 T02010159  RH  077%=      5-min Rain = 0
KST3 141456Z 03012KT 20/16 A303 RMK A01 T02010161  RH  078%=      5-min Rain = 0
KST3 141457Z 02013KT 20/16 A303 RMK A01 T02010160  RH  077%=      5-min Rain = 0
KST3 141458Z 02015KT 20/16 A303 RMK A01 T02010159  RH  077%=      5-min Rain = 0
KST3 141459Z 02013KT 20/16 A303 RMK A01 T02010160  RH  078%=      5-min Rain = 0
KST3 141500Z 02012KT 20/16 A303 RMK A01 T02010161  RH  078%=      5-min Rain = 0
KST3 141501Z 02011KT 20/16 A303 RMK A01 T02010162  RH  078%=      5-min Rain = 0
KST3 141502Z 02011KT 20/16 A303 RMK A01 T02010162  RH  078%=      5-min Rain = 0
KST3 141503Z 03010KT 20/16 A303 RMK A01 T02010162  RH  078%=      5-min Rain = 0
KST3 141504Z 02011G16KT 20/16 A303 RMK A01 T02010162  RH  078%=      5-min Rain = 0
KST3 141505Z 02013KT 20/16 A3031 RMK A01 T02020162  RH  078%=      5-min Rain = 0
KST3 141506Z 01012KT 20/16 A3031 RMK A01 T02020162  RH  078%=      5-min Rain = 0
KST3 141507Z 02012KT 20/16 A3031 RMK A01 T02020162  RH  078%=      5-min Rain = 0
KST3 141508Z 01015KT 20/16 A3031 RMK A01 T02020163  RH  078%=      5-min Rain = 0
KST3 141509Z 02011KT 20/16 A3031 RMK A01 T02020164  RH  079%=      5-min Rain = 0
KST3 141510Z 01012KT 20/16 A3031 RMK A01 T02020162  RH  078%=      5-min Rain = 0
KST3 141511Z 00012KT 20/16 A3031 RMK A01 T02010163  RH  079%=      5-min Rain = 0
KST3 141512Z 01010KT 20/16 A3031 RMK A01 T02010164  RH  079%=      5-min Rain = 0
KST3 141513Z 02013KT 20/17 A3031 RMK A01 T02020165  RH  079%=      5-min Rain = 0
KST3 141514Z 01012KT 20/16 A3031 RMK A01 T02020163  RH  078%=      5-min Rain = 0
KST3 141515Z 02012KT 20/16 A303 RMK A01 T02020164  RH  078%=      5-min Rain = 0
KST3 141516Z 02012KT 20/16 A3031 RMK A01 T02020163  RH  078%=      5-min Rain = 0
KST3 141517Z 02014KT 20/16 A3031 RMK A01 T02020163  RH  078%=      5-min Rain = 0
KST3 141518Z 01013KT 20/16 A3031 RMK A01 T02030164  RH  078%=      5-min Rain = 0
KST3 141519Z 01014KT 20/16 A3031 RMK A01 T02030164  RH  078%=      5-min Rain = 0
KST3 141520Z 01015KT 20/16 A3031 RMK A01 T02030162  RH  077%=      5-min Rain = 0
KST3 141521Z 01014KT 20/16 A3031 RMK A01 T02030163  RH  078%=      5-min Rain = 0
KST3 141522Z 01013KT 20/16 A3031 RMK A01 T02030163  RH  078%=      5-min Rain = 0
KST3 141523Z 01013KT 20/17 A3031 RMK A01 T02040165  RH  078%=      5-min Rain = 0
KST3 141524Z 01011KT 20/16 A303 RMK A01 T02040164  RH  078%=      5-min Rain = 0
KST3 141525Z 01011KT 21/17 A303 RMK A01 T02050165  RH  078%=      5-min Rain = 0
KST3 141526Z 01013KT 21/16 A303 RMK A01 T02060164  RH  077%=      5-min Rain = 0
KST3 141527Z 02012KT 21/16 A303 RMK A01 T02060164  RH  077%=      5-min Rain = 0
KST3 141528Z 01012KT 21/16 A303 RMK A01 T02050163  RH  077%=      5-min Rain = 0
KST3 141529Z 02012KT 21/16 A303 RMK A01 T02050164  RH  077%=      5-min Rain = 0
KST3 141530Z 02012KT 21/17 A303 RMK A01 T02050165  RH  077%=      5-min Rain = 0
KST3 141531Z 02012KT 21/17 A303 RMK A01 T02060165  RH  077%=      5-min Rain = 0
KST3 141532Z 02012KT 21/17 A303 RMK A01 T02080166  RH  077%=      5-min Rain = 0
KST3 141533Z 02010KT 21/17 A303 RMK A01 T02110167  RH  076%=      5-min Rain = 0
KST3 141534Z 02011KT 21/17 A3029 RMK A01 T02140168  RH  075%=      5-min Rain = 0
KST3 141535Z 02011KT 22/17 A3029 RMK A01 T02160168  RH  074%=      5-min Rain = 0
KST3 141536Z 01009KT 22/17 A3029 RMK A01 T02190172  RH  074%=      5-min Rain = 0
KST3 141537Z 02012KT 22/17 A3029 RMK A01 T02220170  RH  072%=      5-min Rain = 0
KST3 141538Z 02013KT 22/16 A3029 RMK A01 T02230164  RH  069%=      5-min Rain = 0
KST3 141539Z 01013KT 22/17 A3029 RMK A01 T02210165  RH  071%=      5-min Rain = 0
KST3 141540Z 01012KT 22/16 A3029 RMK A01 T02220164  RH  070%=      5-min Rain = 0
KST3 141541Z 00012KT 22/16 A3029 RMK A01 T02200163  RH  070%=      5-min Rain = 0
KST3 141542Z 01011KT 22/16 A3029 RMK A01 T02180162  RH  070%=      5-min Rain = 0
KST3 141543Z 01013KT 22/16 A3029 RMK A01 T02190162  RH  070%=      5-min Rain = 0
KST3 141544Z 01013KT 22/16 A3029 RMK A01 T02200161  RH  069%=      5-min Rain = 0
KST3 141545Z 02010KT 22/16 A3029 RMK A01 T02230162  RH  068%=      5-min Rain = 0
KST3 141546Z 02011KT 23/16 A3029 RMK A01 T02260164  RH  068%=      5-min Rain = 0
KST3 141547Z 02009KT 23/17 A3029 RMK A01 T02280165  RH  068%=      5-min Rain = 0
KST3 141548Z 01009KT 23/17 A3029 RMK A01 T02300168  RH  068%=      5-min Rain = 0
KST3 141549Z 01011KT 24/17 A3029 RMK A01 T02350167  RH  066%=      5-min Rain = 0
KST3 141550Z 00011KT 24/17 A3029 RMK A01 T02360165  RH  064%=      5-min Rain = 0
KST3 141551Z 01010KT 24/16 A3029 RMK A01 T02350164  RH  064%=      5-min Rain = 0
KST3 141552Z 36009KT 24/17 A3029 RMK A01 T02350166  RH  065%=      5-min Rain = 0
KST3 141553Z 36009KT 24/16 A3029 RMK A01 T02360164  RH  064%=      5-min Rain = 0
KST3 141554Z 00009KT 24/16 A3029 RMK A01 T02370164  RH  063%=      5-min Rain = 0
KST3 141555Z 02009KT 24/16 A3029 RMK A01 T02370163  RH  063%=      5-min Rain = 0
KST3 141556Z 02012KT 24/16 A3029 RMK A01 T02370162  RH  063%=      5-min Rain = 0
KST3 141557Z 00008KT 24/16 A3029 RMK A01 T02360162  RH  063%=      5-min Rain = 0
KST3 141558Z 35010KT 24/17 A3029 RMK A01 T02370167  RH  065%=      5-min Rain = 0
KST3 141559Z 35009KT 24/16 A3029 RMK A01 T02400163  RH  062%=      5-min Rain = 0
KST3 141600Z 02010KT 24/16 A3029 RMK A01 T02410161  RH  061%=      5-min Rain = 0
KST3 141601Z 01009KT 24/16 A3029 RMK A01 T02420161  RH  061%=      5-min Rain = 0
KST3 141602Z 01010KT 24/16 A3029 RMK A01 T02430162  RH  061%=      5-min Rain = 0
KST3 141603Z 01011KT 24/16 A3029 RMK A01 T02440160  RH  060%=      5-min Rain = 0
KST3 141604Z 01008KT 24/16 A3029 RMK A01 T02440161  RH  060%=      5-min Rain = 0
KST3 141605Z 03010KT 25/16 A3029 RMK A01 T02450162  RH  060%=      5-min Rain = 0
KST3 141606Z 02009KT 25/16 A3029 RMK A01 T02470161  RH  059%=      5-min Rain = 0
KST3 141607Z 00009KT 25/16 A3028 RMK A01 T02490164  RH  059%=      5-min Rain = 0
KST3 141608Z 01010G15KT 25/16 A3028 RMK A01 T02510163  RH  058%=      5-min Rain = 0
KST3 141609Z 02011KT 25/16 A3028 RMK A01 T02510155  RH  055%=      5-min Rain = 0
KST3 141610Z 00011KT 25/16 A3028 RMK A01 T02480155  RH  056%=      5-min Rain = 0
KST3 141611Z 35010KT 25/16 A3028 RMK A01 T02470156  RH  057%=      5-min Rain = 0
KST3 141612Z 35010KT 25/16 A3028 RMK A01 T02470155  RH  057%=      5-min Rain = 0
KST3 141613Z 36012KT 25/16 A3028 RMK A01 T02480159  RH  058%=      5-min Rain = 0
KST3 141614Z 01009KT 25/16 A3028 RMK A01 T02480155  RH  056%=      5-min Rain = 0
KST3 141615Z 01009KT 25/15 A3028 RMK A01 T02480154  RH  056%=      5-min Rain = 0
KST3 141616Z 01010KT 25/16 A3028 RMK A01 T02470155  RH  057%=      5-min Rain = 0
KST3 141617Z 02009KT 25/15 A3027 RMK A01 T02470152  RH  055%=      5-min Rain = 0
KST3 141618Z 01009KT 25/16 A3027 RMK A01 T02480155  RH  056%=      5-min Rain = 0
KST3 141619Z 00006KT 25/15 A3027 RMK A01 T02470154  RH  056%=      5-min Rain = 0
KST3 141620Z 01006KT 25/16 A3027 RMK A01 T02470156  RH  057%=      5-min Rain = 0
KST3 141621Z 02008KT 25/16 A3027 RMK A01 T02480158  RH  057%=      5-min Rain = 0
KST3 141622Z 04007KT 25/16 A3027 RMK A01 T02510155  RH  055%=      5-min Rain = 0
KST3 141623Z 04003KT 25/15 A3027 RMK A01 T02500152  RH  054%=      5-min Rain = 0
KST3 141624Z 02006KT 25/16 A3027 RMK A01 T02480156  RH  056%=      5-min Rain = 0
KST3 141625Z 35005KT 25/16 A3026 RMK A01 T02500156  RH  056%=      5-min Rain = 0
KST3 141626Z 35004KT 25/17 A3026 RMK A01 T02530165  RH  058%=      5-min Rain = 0
KST3 141627Z 34005KT 26/16 A3026 RMK A01 T02580158  RH  054%=      5-min Rain = 0
KST3 141628Z 34002KT 26/16 A3026 RMK A01 T02580161  RH  055%=      5-min Rain = 0
KST3 141629Z 03005KT 26/16 A3026 RMK A01 T02580158  RH  054%=      5-min Rain = 0
KST3 141630Z 05005KT 26/16 A3026 RMK A01 T02550155  RH  054%=      5-min Rain = 0
KST3 141631Z 05004KT 25/15 A3026 RMK A01 T02500152  RH  054%=      5-min Rain = 0
KST3 141632Z 05004KT 25/15 A3026 RMK A01 T02480150  RH  054%=      5-min Rain = 0
KST3 141633Z 07004KT 25/16 A3026 RMK A01 T02470156  RH  057%=      5-min Rain = 0
KST3 141634Z 36004KT 25/15 A3026 RMK A01 T02480153  RH  055%=      5-min Rain = 0
KST3 141635Z 02005KT 25/15 A3026 RMK A01 T02490153  RH  055%=      5-min Rain = 0
KST3 141636Z 01003KT 25/15 A3026 RMK A01 T02490147  RH  053%=      5-min Rain = 0
KST3 141637Z 02002KT 25/15 A3026 RMK A01 T02490149  RH  054%=      5-min Rain = 0
KST3 141638Z 04003KT 25/15 A3026 RMK A01 T02490147  RH  053%=      5-min Rain = 0
KST3 141639Z 03005KT 25/15 A3026 RMK A01 T02510152  RH  054%=      5-min Rain = 0
KST3 141640Z 02004KT 26/15 A3025 RMK A01 T02560152  RH  053%=      5-min Rain = 0
KST3 141641Z 07005KT 26/15 A3025 RMK A01 T02580145  RH  050%=      5-min Rain = 0
KST3 141642Z 07004KT 26/14 A3025 RMK A01 T02580144  RH  049%=      5-min Rain = 0
KST3 141643Z 08004KT 26/14 A3025 RMK A01 T02580143  RH  049%=      5-min Rain = 0
KST3 141644Z 07004KT 26/14 A3025 RMK A01 T02580142  RH  049%=      5-min Rain = 0
KST3 141645Z 06002KT 26/14 A3025 RMK A01 T02580142  RH  049%=      5-min Rain = 0
KST3 141646Z 10002KT 26/14 A3025 RMK A01 T02580143  RH  049%=      5-min Rain = 0
KST3 141647Z 10002KT 26/15 A3025 RMK A01 T02600148  RH  050%=      5-min Rain = 0
KST3 141648Z 10001KT 26/15 A3025 RMK A01 T02620147  RH  049%=      5-min Rain = 0
KST3 141649Z 12000KT 26/15 A3024 RMK A01 T02620149  RH  050%=      5-min Rain = 0
KST3 141650Z 18001KT 26/15 A3024 RMK A01 T02630149  RH  049%=      5-min Rain = 0
KST3 141651Z 17003KT 26/15 A3024 RMK A01 T02640150  RH  049%=      5-min Rain = 0
KST3 141652Z 17004KT 27/15 A3024 RMK A01 T02650153  RH  050%=      5-min Rain = 0
KST3 141653Z 16004KT 27/15 A3024 RMK A01 T02650153  RH  050%=      5-min Rain = 0
KST3 141654Z 12004KT 27/15 A3024 RMK A01 T02650152  RH  050%=      5-min Rain = 0
KST3 141655Z 15005KT 27/15 A3024 RMK A01 T02670154  RH  050%=      5-min Rain = 0
KST3 141656Z 17005KT 27/15 A3024 RMK A01 T02660150  RH  049%=      5-min Rain = 0
KST3 141657Z 18006KT 27/15 A3024 RMK A01 T02650151  RH  049%=      5-min Rain = 0
KST3 141658Z 17005KT 26/15 A3024 RMK A01 T02640147  RH  049%=      5-min Rain = 0
KST3 141659Z 16004KT 26/15 A3024 RMK A01 T02630152  RH  050%=      5-min Rain = 0
KST3 141700Z 20001KT 26/15 A3024 RMK A01 T02640148  RH  049%=      5-min Rain = 0
KST3 141701Z 15003KT 27/15 A3024 RMK A01 T02660150  RH  049%=      5-min Rain = 0
KST3 141702Z 17006KT 27/16 A3023 RMK A01 T02670159  RH  051%=      5-min Rain = 0
KST3 141703Z 16007KT 27/15 A3023 RMK A01 T02690154  RH  049%=      5-min Rain = 0
KST3 141704Z 17008KT 27/15 A3023 RMK A01 T02670151  RH  049%=      5-min Rain = 0
KST3 141705Z 18006KT 26/15 A3023 RMK A01 T02630148  RH  049%=      5-min Rain = 0
KST3 141706Z 19004KT 26/14 A3023 RMK A01 T02610143  RH  048%=      5-min Rain = 0
KST3 141707Z 19005KT 26/14 A3023 RMK A01 T02600144  RH  049%=      5-min Rain = 0
KST3 141708Z 19003KT 26/15 A3023 RMK A01 T02600145  RH  049%=      5-min Rain = 0
KST3 141709Z 20003KT 26/14 A3023 RMK A01 T02630144  RH  048%=      5-min Rain = 0
KST3 141710Z 22003KT 26/14 A3023 RMK A01 T02640143  RH  047%=      5-min Rain = 0
KST3 141711Z 19005KT 27/15 A3023 RMK A01 T02660152  RH  049%=      5-min Rain = 0
KST3 141712Z 18006KT 27/15 A3023 RMK A01 T02680151  RH  049%=      5-min Rain = 0
KST3 141713Z 17005KT 27/15 A3024 RMK A01 T02680148  RH  048%=      5-min Rain = 0
KST3 141714Z 15005KT 27/15 A3024 RMK A01 T02680151  RH  049%=      5-min Rain = 0
KST3 141715Z 16002KT 27/15 A3023 RMK A01 T02680149  RH  048%=      5-min Rain = 0
KST3 141716Z 18005KT 27/15 A3023 RMK A01 T02690153  RH  049%=      5-min Rain = 0
KST3 141717Z 17006KT 27/16 A3023 RMK A01 T02710156  RH  049%=      5-min Rain = 0
KST3 141718Z 15005KT 27/15 A3023 RMK A01 T02700151  RH  048%=      5-min Rain = 0
KST3 141719Z 16003KT 27/16 A3023 RMK A01 T02690157  RH  050%=      5-min Rain = 0
KST3 141720Z 18005KT 27/15 A3023 RMK A01 T02690150  RH  048%=      5-min Rain = 0
KST3 141721Z 17006KT 27/15 A3023 RMK A01 T02680150  RH  048%=      5-min Rain = 0
KST3 141722Z 17006KT 27/15 A3023 RMK A01 T02680150  RH  048%=      5-min Rain = 0
KST3 141723Z 17007KT 27/15 A3023 RMK A01 T02670153  RH  050%=      5-min Rain = 0
KST3 141724Z 17006KT 27/15 A3023 RMK A01 T02660153  RH  050%=      5-min Rain = 0
KST3 141725Z 20006KT 27/15 A3023 RMK A01 T02660149  RH  049%=      5-min Rain = 0
KST3 141726Z 21006KT 27/15 A3023 RMK A01 T02670150  RH  049%=      5-min Rain = 0
KST3 141727Z 22003KT 27/15 A3023 RMK A01 T02680148  RH  048%=      5-min Rain = 0
KST3 141728Z 23003KT 27/15 A3023 RMK A01 T02680147  RH  047%=      5-min Rain = 0
KST3 141729Z 25002KT 27/15 A3023 RMK A01 T02680146  RH  047%=      5-min Rain = 0
KST3 141730Z 23000KT 27/15 A3022 RMK A01 T02690146  RH  047%=      5-min Rain = 0
KST3 141731Z 16002KT 27/15 A3022 RMK A01 T02700152  RH  049%=      5-min Rain = 0
KST3 141732Z 15004KT 27/15 A3022 RMK A01 T02720153  RH  048%=      5-min Rain = 0
KST3 141733Z 13004KT 27/15 A3022 RMK A01 T02710153  RH  048%=      5-min Rain = 0
KST3 141734Z 13003KT 27/15 A3022 RMK A01 T02690150  RH  048%=      5-min Rain = 0
KST3 141735Z 14004KT 27/15 A3022 RMK A01 T02670152  RH  049%=      5-min Rain = 0
KST3 141736Z 13006KT 27/16 A3022 RMK A01 T02690156  RH  050%=      5-min Rain = 0
KST3 141737Z 13005KT 27/15 A3022 RMK A01 T02710150  RH  048%=      5-min Rain = 0
KST3 141738Z 15004KT 27/15 A3022 RMK A01 T02720147  RH  046%=      5-min Rain = 0
KST3 141739Z 16006KT 27/15 A3022 RMK A01 T02710150  RH  048%=      5-min Rain = 0
KST3 141740Z 15005KT 27/15 A3022 RMK A01 T02710148  RH  047%=      5-min Rain = 0
KST3 141741Z 14005KT 27/15 A3022 RMK A01 T02710147  RH  047%=      5-min Rain = 0
KST3 141742Z 12004KT 27/14 A3022 RMK A01 T02700144  RH  046%=      5-min Rain = 0
KST3 141743Z 11002KT 27/14 A3022 RMK A01 T02680143  RH  046%=      5-min Rain = 0
KST3 141744Z 12001KT 27/15 A3022 RMK A01 T02680145  RH  047%=      5-min Rain = 0
KST3 141745Z 14000KT 27/15 A3022 RMK A01 T02690146  RH  047%=      5-min Rain = 0
KST3 141746Z 19003KT 27/15 A3021 RMK A01 T02700148  RH  047%=      5-min Rain = 0
KST3 141747Z 19004KT 27/16 A3021 RMK A01 T02740157  RH  049%=      5-min Rain = 0
KST3 141748Z 19004KT 28/15 A3021 RMK A01 T02780154  RH  047%=      5-min Rain = 0
KST3 141749Z 18003KT 28/15 A3021 RMK A01 T02790149  RH  045%=      5-min Rain = 0
KST3 141750Z 23007KT 28/15 A3021 RMK A01 T02780153  RH  047%=      5-min Rain = 0
KST3 141751Z 23006KT 28/15 A3021 RMK A01 T02790153  RH  046%=      5-min Rain = 0
KST3 141752Z 25004KT 28/16 A3021 RMK A01 T02790155  RH  047%=      5-min Rain = 0
KST3 141753Z 20005KT 28/15 A3021 RMK A01 T02800152  RH  046%=      5-min Rain = 0
KST3 141754Z 19004KT 28/15 A3021 RMK A01 T02790145  RH  044%=      5-min Rain = 0
KST3 141755Z 20002KT 28/15 A3021 RMK A01 T02770146  RH  045%=      5-min Rain = 0
KST3 141756Z 14002KT 28/14 A3021 RMK A01 T02760144  RH  044%=      5-min Rain = 0
KST3 141757Z 11001KT 28/15 A3021 RMK A01 T02760146  RH  045%=      5-min Rain = 0
KST3 141758Z 16002KT 28/15 A3021 RMK A01 T02760148  RH  046%=      5-min Rain = 0
KST3 141759Z 17002KT 28/15 A3021 RMK A01 T02760146  RH  045%=      5-min Rain = 0
KST3 141800Z 20001KT 28/15 A3021 RMK A01 T02770146  RH  045%=      5-min Rain = 0
KST3 141801Z 17002KT 28/15 A3021 RMK A01 T02770148  RH  045%=      5-min Rain = 0
KST3 141802Z 19004KT 28/15 A3021 RMK A01 T02770148  RH  045%=      5-min Rain = 0
KST3 141803Z 24005KT 28/15 A3021 RMK A01 T02780152  RH  046%=      5-min Rain = 0
KST3 141804Z 24008KT 28/14 A3021 RMK A01 T02820144  RH  043%=      5-min Rain = 0
KST3 141805Z 24006KT 28/14 A3021 RMK A01 T02800138  RH  042%=      5-min Rain = 0
KST3 141806Z 22004KT 28/14 A3021 RMK A01 T02770139  RH  043%=      5-min Rain = 0
KST3 141807Z 21003KT 28/14 A3021 RMK A01 T02770142  RH  044%=      5-min Rain = 0
KST3 141808Z 21001KT 28/14 A3021 RMK A01 T02780139  RH  043%=      5-min Rain = 0
KST3 141809Z 19001KT 28/14 A3021 RMK A01 T02790143  RH  043%=      5-min Rain = 0
KST3 141810Z 20000KT 28/14 A3021 RMK A01 T02800141  RH  043%=      5-min Rain = 0
KST3 141811Z 26004KT 28/14 A3021 RMK A01 T02800140  RH  042%=      5-min Rain = 0
KST3 141812Z 25006KT 28/14 A3021 RMK A01 T02810139  RH  042%=      5-min Rain = 0
KST3 141813Z 22004KT 28/14 A3021 RMK A01 T02800137  RH  041%=      5-min Rain = 0
KST3 141814Z 21003KT 28/14 A302 RMK A01 T02800140  RH  042%=      5-min Rain = 0
KST3 141815Z 20003KT 28/14 A302 RMK A01 T02790138  RH  042%=      5-min Rain = 0
KST3 141816Z 31003KT 28/14 A302 RMK A01 T02770143  RH  044%=      5-min Rain = 0
KST3 141817Z 31003KT 28/14 A302 RMK A01 T02780143  RH  043%=      5-min Rain = 0
KST3 141818Z 31001KT 28/14 A302 RMK A01 T02800142  RH  043%=      5-min Rain = 0
KST3 141819Z 23002KT 28/14 A302 RMK A01 T02810142  RH  043%=      5-min Rain = 0
KST3 141820Z 24005KT 28/15 A302 RMK A01 T02840145  RH  043%=      5-min Rain = 0
KST3 141821Z 27005KT 29/15 A302 RMK A01 T02850147  RH  043%=      5-min Rain = 0
KST3 141822Z 28009KT 29/14 A302 RMK A01 T02870141  RH  041%=      5-min Rain = 0
KST3 141823Z 27006KT 29/14 A302 RMK A01 T02850139  RH  041%=      5-min Rain = 0
KST3 141824Z 27005KT 29/14 A302 RMK A01 T02850139  RH  041%=      5-min Rain = 0
KST3 141825Z 28005KT 29/14 A302 RMK A01 T02850140  RH  041%=      5-min Rain = 0
KST3 141826Z 25005KT 29/14 A302 RMK A01 T02850141  RH  041%=      5-min Rain = 0
KST3 141827Z 22006G11KT 29/15 A302 RMK A01 T02850149  RH  044%=      5-min Rain = 0
KST3 141828Z 22006KT 29/15 A302 RMK A01 T02850149  RH  043%=      5-min Rain = 0
KST3 141829Z 23008KT 29/15 A302 RMK A01 T02850147  RH  043%=      5-min Rain = 0
KST3 141830Z 22008KT 29/15 A302 RMK A01 T02860151  RH  044%=      5-min Rain = 0
KST3 141831Z 24009KT 29/16 A302 RMK A01 T02900155  RH  044%=      5-min Rain = 0
KST3 141832Z 24010KT 29/15 A302 RMK A01 T02930149  RH  042%=      5-min Rain = 0
KST3 141833Z 25007KT 29/15 A302 RMK A01 T02920148  RH  041%=      5-min Rain = 0
KST3 141834Z 22008KT 29/15 A302 RMK A01 T02930150  RH  042%=      5-min Rain = 0
KST3 141835Z 23010KT 29/14 A302 RMK A01 T02940143  RH  040%=      5-min Rain = 0
KST3 141836Z 22007KT 29/14 A302 RMK A01 T02920138  RH  039%=      5-min Rain = 0
KST3 141837Z 24008KT 29/14 A302 RMK A01 T02910141  RH  040%=      5-min Rain = 0
KST3 141838Z 23010KT 29/14 A3019 RMK A01 T02930142  RH  040%=      5-min Rain = 0
KST3 141839Z 22009KT 30/14 A3019 RMK A01 T02950138  RH  038%=      5-min Rain = 0
KST3 141840Z 25007KT 30/14 A302 RMK A01 T02950140  RH  039%=      5-min Rain = 0
KST3 141841Z 26007KT 30/14 A302 RMK A01 T02950140  RH  039%=      5-min Rain = 0
KST3 141842Z 25007KT 30/14 A302 RMK A01 T02960141  RH  039%=      5-min Rain = 0
KST3 141843Z 25004KT 30/14 A302 RMK A01 T02950137  RH  038%=      5-min Rain = 0
KST3 141844Z 26006KT 29/14 A302 RMK A01 T02940144  RH  040%=      5-min Rain = 0
KST3 141845Z 26007KT 30/14 A302 RMK A01 T02950144  RH  040%=      5-min Rain = 0
KST3 141846Z 26009KT 30/15 A302 RMK A01 T02960146  RH  040%=      5-min Rain = 0
KST3 141847Z 25009KT 30/14 A302 RMK A01 T02960143  RH  039%=      5-min Rain = 0
KST3 141848Z 25005KT 30/15 A3019 RMK A01 T02960151  RH  041%=      5-min Rain = 0
KST3 141849Z 26007KT 30/15 A3019 RMK A01 T03000148  RH  040%=      5-min Rain = 0
KST3 141850Z 23007G14KT 30/15 A3019 RMK A01 T02990154  RH  042%=      5-min Rain = 0
KST3 141851Z 23011KT 30/16 A3019 RMK A01 T03000155  RH  041%=      5-min Rain = 0
KST3 141852Z 24010KT 30/16 A3019 RMK A01 T03010155  RH  041%=      5-min Rain = 0
KST3 141853Z 23010KT 30/16 A3019 RMK A01 T02990156  RH  042%=      5-min Rain = 0
KST3 141854Z 22012KT 30/15 A3019 RMK A01 T02970151  RH  041%=      5-min Rain = 0
KST3 141855Z 22008KT 29/15 A302 RMK A01 T02930150  RH  042%=      5-min Rain = 0
KST3 141856Z 23008KT 29/15 A302 RMK A01 T02910150  RH  042%=      5-min Rain = 0
KST3 141857Z 25005KT 29/15 A3019 RMK A01 T02900153  RH  043%=      5-min Rain = 0
KST3 141858Z 21008KT 29/16 A3019 RMK A01 T02900156  RH  044%=      5-min Rain = 0
KST3 141859Z 22007KT 29/16 A3019 RMK A01 T02910155  RH  044%=      5-min Rain = 0
KST3 141900Z 22007KT 29/16 A3019 RMK A01 T02910156  RH  044%=      5-min Rain = 0
KST3 141901Z 23011KT 29/15 A3019 RMK A01 T02920152  RH  043%=      5-min Rain = 0
KST3 141902Z 23010KT 29/15 A3019 RMK A01 T02930153  RH  043%=      5-min Rain = 0
KST3 141903Z 23009KT 29/15 A3019 RMK A01 T02930152  RH  042%=      5-min Rain = 0
KST3 141904Z 22007KT 29/15 A3019 RMK A01 T02920149  RH  042%=      5-min Rain = 0
KST3 141905Z 21008KT 29/15 A3019 RMK A01 T02910152  RH  043%=      5-min Rain = 0
KST3 141906Z 20009KT 29/15 A3019 RMK A01 T02910154  RH  043%=      5-min Rain = 0
KST3 141907Z 24014KT 29/16 A3019 RMK A01 T02930157  RH  044%=      5-min Rain = 0
KST3 141908Z 25011KT 30/15 A3019 RMK A01 T02950149  RH  041%=      5-min Rain = 0
KST3 141909Z 24013KT 30/16 A3019 RMK A01 T02950155  RH  043%=      5-min Rain = 0
KST3 141910Z 25012KT 30/15 A3019 RMK A01 T02970150  RH  041%=      5-min Rain = 0
KST3 141911Z 25011G16KT 30/15 A3019 RMK A01 T02970153  RH  042%=      5-min Rain = 0
KST3 141912Z 25011KT 30/15 A3019 RMK A01 T02960150  RH  041%=      5-min Rain = 0
KST3 141913Z 25010KT 29/15 A3019 RMK A01 T02940151  RH  042%=      5-min Rain = 0
KST3 141914Z 26008KT 29/15 A3019 RMK A01 T02930154  RH  043%=      5-min Rain = 0
KST3 141915Z 25009KT 30/16 A3019 RMK A01 T02950161  RH  044%=      5-min Rain = 0
KST3 141916Z 26009KT 30/16 A3019 RMK A01 T02990159  RH  043%=      5-min Rain = 0
KST3 141917Z 25007KT 30/16 A3019 RMK A01 T03010160  RH  043%=      5-min Rain = 0
KST3 141918Z 24012KT 30/16 A3019 RMK A01 T03020157  RH  041%=      5-min Rain = 0
KST3 141919Z 25011KT 30/15 A3019 RMK A01 T03000151  RH  040%=      5-min Rain = 0
KST3 141920Z 25007KT 30/15 A3019 RMK A01 T02960152  RH  042%=      5-min Rain = 0
KST3 141921Z 24009KT 30/16 A3019 RMK A01 T02950155  RH  043%=      5-min Rain = 0
KST3 141922Z 25005KT 30/15 A3019 RMK A01 T02950150  RH  041%=      5-min Rain = 0
KST3 141923Z 24011KT 30/16 A3019 RMK A01 T02950156  RH  043%=      5-min Rain = 0
KST3 141924Z 24010G16KT 30/16 A3019 RMK A01 T02990155  RH  042%=      5-min Rain = 0
KST3 141925Z 24007KT 30/15 A3019 RMK A01 T02980154  RH  042%=      5-min Rain = 0
KST3 141926Z 27007KT 30/16 A3019 RMK A01 T02970157  RH  043%=      5-min Rain = 0
KST3 141927Z 25010KT 30/16 A3019 RMK A01 T03000156  RH  042%=      5-min Rain = 0
KST3 141928Z 25007KT 30/15 A3019 RMK A01 T03010152  RH  041%=      5-min Rain = 0
KST3 141929Z 23008KT 30/15 A3019 RMK A01 T02990154  RH  041%=      5-min Rain = 0
KST3 141930Z 23012G17KT 30/16 A3019 RMK A01 T02990157  RH  042%=      5-min Rain = 0
KST3 141931Z 23011KT 30/16 A3019 RMK A01 T02990155  RH  042%=      5-min Rain = 0
KST3 141932Z 23007KT 30/16 A3019 RMK A01 T02970157  RH  043%=      5-min Rain = 0
KST3 141933Z 24009KT 30/16 A3019 RMK A01 T02970158  RH  043%=      5-min Rain = 0
KST3 141934Z 26010KT 30/15 A3019 RMK A01 T02980150  RH  041%=      5-min Rain = 0
KST3 141935Z 25010G15KT 30/15 A3019 RMK A01 T02970149  RH  041%=      5-min Rain = 0
KST3 141936Z 26011KT 30/15 A3019 RMK A01 T02960150  RH  041%=      5-min Rain = 0
KST3 141937Z 27009KT 30/15 A3019 RMK A01 T02970151  RH  041%=      5-min Rain = 0
KST3 141938Z 25007KT 30/15 A3019 RMK A01 T02980150  RH  041%=      5-min Rain = 0
KST3 141939Z 22006KT 30/15 A3019 RMK A01 T02980153  RH  041%=      5-min Rain = 0
KST3 141940Z 23008KT 30/16 A3019 RMK A01 T02990155  RH  042%=      5-min Rain = 0
KST3 141941Z 25010KT 30/15 A3019 RMK A01 T03000154  RH  041%=      5-min Rain = 0
KST3 141942Z 26010KT 30/16 A3019 RMK A01 T03030157  RH  041%=      5-min Rain = 0
KST3 141943Z 26008KT 30/15 A3019 RMK A01 T03030149  RH  039%=      5-min Rain = 0
KST3 141944Z 26006KT 30/15 A3019 RMK A01 T03020149  RH  039%=      5-min Rain = 0
KST3 141945Z 24008KT 30/15 A3019 RMK A01 T03010154  RH  041%=      5-min Rain = 0
KST3 141946Z 25008KT 30/16 A3019 RMK A01 T03010157  RH  042%=      5-min Rain = 0
KST3 141947Z 25011KT 30/16 A3019 RMK A01 T03020155  RH  041%=      5-min Rain = 0
KST3 141948Z 24009KT 30/16 A3019 RMK A01 T03040158  RH  041%=      5-min Rain = 0
KST3 141949Z 25009KT 30/16 A3019 RMK A01 T03040156  RH  041%=      5-min Rain = 0
KST3 141950Z 25010KT 30/15 A3019 RMK A01 T03040150  RH  039%=      5-min Rain = 0
KST3 141951Z 23006KT 30/15 A3019 RMK A01 T03010150  RH  040%=      5-min Rain = 0
KST3 141952Z 23007KT 30/15 A3019 RMK A01 T03000152  RH  041%=      5-min Rain = 0
KST3 141953Z 22002KT 30/15 A3019 RMK A01 T02990149  RH  040%=      5-min Rain = 0
KST3 141954Z 23005KT 30/15 A3019 RMK A01 T02980151  RH  041%=      5-min Rain = 0
KST3 141955Z 21007KT 30/16 A3019 RMK A01 T03000155  RH  042%=      5-min Rain = 0
KST3 141956Z 25006KT 30/15 A3019 RMK A01 T03010154  RH  041%=      5-min Rain = 0
KST3 141957Z 25006KT 30/16 A3019 RMK A01 T03000155  RH  042%=      5-min Rain = 0
KST3 141958Z 24004KT 30/15 A3019 RMK A01 T03010149  RH  040%=      5-min Rain = 0
KST3 141959Z 23003KT 30/15 A3019 RMK A01 T02990149  RH  040%=      5-min Rain = 0
KST3 142000Z 27011KT 30/15 A3019 RMK A01 T02990153  RH  041%=      5-min Rain = 0
KST3 142001Z 28009KT 30/14 A3019 RMK A01 T03030142  RH  038%=      5-min Rain = 0
KST3 142002Z 28008KT 30/14 A3019 RMK A01 T03030138  RH  037%=      5-min Rain = 0
KST3 142003Z 28006KT 30/14 A3019 RMK A01 T03010136  RH  036%=      5-min Rain = 0
KST3 142004Z 26003KT 30/13 A3019 RMK A01 T03000132  RH  036%=      5-min Rain = 0
KST3 142005Z 23002KT 30/13 A3018 RMK A01 T02990133  RH  036%=      5-min Rain = 0
KST3 142006Z 31003KT 30/14 A3018 RMK A01 T03010137  RH  037%=      5-min Rain = 0
KST3 142007Z 28005KT 30/14 A3018 RMK A01 T03030144  RH  038%=      5-min Rain = 0
KST3 142008Z 25004KT 31/14 A3018 RMK A01 T03060144  RH  037%=      5-min Rain = 0
KST3 142009Z 27004KT 31/15 A3018 RMK A01 T03070150  RH  039%=      5-min Rain = 0
KST3 142010Z 24003KT 31/15 A3018 RMK A01 T03080149  RH  038%=      5-min Rain = 0
KST3 142011Z 26002KT 31/14 A3018 RMK A01 T03080143  RH  037%=      5-min Rain = 0
KST3 142012Z 24002KT 31/15 A3018 RMK A01 T03080146  RH  037%=      5-min Rain = 0
KST3 142013Z 24003KT 31/15 A3018 RMK A01 T03080148  RH  038%=      5-min Rain = 0
KST3 142014Z 27006KT 31/15 A3018 RMK A01 T03080147  RH  038%=      5-min Rain = 0
KST3 142015Z 29008KT 31/14 A3018 RMK A01 T03080144  RH  037%=      5-min Rain = 0
KST3 142016Z 27008KT 31/14 A3018 RMK A01 T03090140  RH  036%=      5-min Rain = 0
KST3 142017Z 28007KT 31/14 A3018 RMK A01 T03070140  RH  036%=      5-min Rain = 0
KST3 142018Z 27005KT 31/14 A3018 RMK A01 T03050136  RH  036%=      5-min Rain = 0
KST3 142019Z 28003KT 30/14 A3018 RMK A01 T03030138  RH  037%=      5-min Rain = 0
KST3 142020Z 26003KT 30/14 A3018 RMK A01 T03030138  RH  037%=      5-min Rain = 0
KST3 142021Z 26002KT 30/14 A3018 RMK A01 T03040140  RH  037%=      5-min Rain = 0
KST3 142022Z 31003KT 31/14 A3018 RMK A01 T03050141  RH  037%=      5-min Rain = 0
KST3 142023Z 29005KT 31/14 A3018 RMK A01 T03070140  RH  036%=      5-min Rain = 0
KST3 142024Z 30006KT 31/14 A3018 RMK A01 T03070140  RH  036%=      5-min Rain = 0
KST3 142025Z 30005KT 31/14 A3018 RMK A01 T03070137  RH  035%=      5-min Rain = 0
KST3 142026Z 26006KT 31/14 A3018 RMK A01 T03050141  RH  037%=      5-min Rain = 0
KST3 142027Z 26008KT 31/14 A3018 RMK A01 T03060144  RH  037%=      5-min Rain = 0
KST3 142028Z 25008KT 31/14 A3018 RMK A01 T03070140  RH  036%=      5-min Rain = 0
KST3 142029Z 24006KT 31/14 A3017 RMK A01 T03070142  RH  037%=      5-min Rain = 0
KST3 142030Z 25006KT 31/15 A3017 RMK A01 T03060146  RH  038%=      5-min Rain = 0
KST3 142031Z 29007KT 31/14 A3017 RMK A01 T03090142  RH  036%=      5-min Rain = 0
KST3 142032Z 27006KT 31/14 A3017 RMK A01 T03080144  RH  037%=      5-min Rain = 0
KST3 142033Z 27006KT 31/14 A3017 RMK A01 T03070141  RH  036%=      5-min Rain = 0
KST3 142034Z 32005KT 30/14 A3017 RMK A01 T03040142  RH  037%=      5-min Rain = 0
KST3 142035Z 30003KT 30/15 A3017 RMK A01 T03040148  RH  039%=      5-min Rain = 0
KST3 142036Z 25006KT 31/15 A3017 RMK A01 T03070148  RH  038%=      5-min Rain = 0
KST3 142037Z 25004KT 31/14 A3017 RMK A01 T03070141  RH  036%=      5-min Rain = 0
KST3 142038Z 24002KT 31/14 A3017 RMK A01 T03050143  RH  037%=      5-min Rain = 0
KST3 142039Z 24003KT 30/14 A3017 RMK A01 T03040143  RH  037%=      5-min Rain = 0
KST3 142040Z 23002KT 30/14 A3017 RMK A01 T03040142  RH  037%=      5-min Rain = 0
KST3 142041Z 25002KT 30/14 A3017 RMK A01 T03040140  RH  037%=      5-min Rain = 0
KST3 142042Z 21002KT 30/15 A3017 RMK A01 T03040147  RH  038%=      5-min Rain = 0
KST3 142043Z 30002KT 31/14 A3017 RMK A01 T03050141  RH  037%=      5-min Rain = 0
KST3 142044Z 33006KT 31/15 A3017 RMK A01 T03070145  RH  037%=      5-min Rain = 0
KST3 142045Z 32004KT 31/14 A3017 RMK A01 T03100143  RH  036%=      5-min Rain = 0
KST3 142046Z 32003KT 31/14 A3017 RMK A01 T03090139  RH  035%=      5-min Rain = 0
KST3 142047Z 33005KT 31/15 A3017 RMK A01 T03080145  RH  037%=      5-min Rain = 0
KST3 142048Z 29005KT 31/15 A3017 RMK A01 T03090146  RH  037%=      5-min Rain = 0
KST3 142049Z 32004KT 31/15 A3017 RMK A01 T03090146  RH  037%=      5-min Rain = 0
KST3 142050Z 31004KT 31/15 A3017 RMK A01 T03090145  RH  037%=      5-min Rain = 0
KST3 142051Z 27006KT 31/15 A3017 RMK A01 T03100152  RH  038%=      5-min Rain = 0
KST3 142052Z 28005KT 31/15 A3016 RMK A01 T03110146  RH  037%=      5-min Rain = 0
KST3 142053Z 28004KT 31/15 A3016 RMK A01 T03100150  RH  038%=      5-min Rain = 0
KST3 142054Z 26006KT 31/15 A3016 RMK A01 T03110147  RH  037%=      5-min Rain = 0
KST3 142055Z 25005KT 31/15 A3016 RMK A01 T03120145  RH  036%=      5-min Rain = 0
KST3 142056Z 24006KT 31/14 A3016 RMK A01 T03110141  RH  035%=      5-min Rain = 0
KST3 142057Z 25004KT 31/14 A3016 RMK A01 T03090140  RH  036%=      5-min Rain = 0
KST3 142058Z 26004KT 31/15 A3016 RMK A01 T03090149  RH  038%=      5-min Rain = 0
KST3 142059Z 24005KT 31/15 A3016 RMK A01 T03120147  RH  037%=      5-min Rain = 0
KST3 142100Z 23005KT 31/14 A3016 RMK A01 T03130143  RH  036%=      5-min Rain = 0
KST3 142101Z 24005KT 31/15 A3016 RMK A01 T03110145  RH  036%=      5-min Rain = 0
KST3 142102Z 23007KT 31/15 A3016 RMK A01 T03110145  RH  036%=      5-min Rain = 0
KST3 142103Z 22006KT 31/14 A3016 RMK A01 T03120142  RH  036%=      5-min Rain = 0
KST3 142104Z 21003KT 31/14 A3016 RMK A01 T03100140  RH  036%=      5-min Rain = 0
KST3 142105Z 21004KT 31/14 A3016 RMK A01 T03100142  RH  036%=      5-min Rain = 0
KST3 142106Z 20004KT 31/14 A3016 RMK A01 T03090142  RH  036%=      5-min Rain = 0
KST3 142107Z 22004KT 31/14 A3016 RMK A01 T03090144  RH  037%=      5-min Rain = 0
KST3 142108Z 25003KT 31/14 A3016 RMK A01 T03110141  RH  036%=      5-min Rain = 0
KST3 142109Z 26008KT 31/14 A3016 RMK A01 T03110143  RH  036%=      5-min Rain = 0
KST3 142110Z 27006KT 31/14 A3016 RMK A01 T03110141  RH  036%=      5-min Rain = 0
KST3 142111Z 27007KT 31/14 A3016 RMK A01 T03090141  RH  036%=      5-min Rain = 0
KST3 142112Z 26006KT 31/14 A3016 RMK A01 T03080144  RH  037%=      5-min Rain = 0
KST3 142113Z 25005KT 31/14 A3016 RMK A01 T03090142  RH  036%=      5-min Rain = 0
KST3 142114Z 27003KT 31/15 A3016 RMK A01 T03090148  RH  038%=      5-min Rain = 0
KST3 142115Z 26003KT 31/15 A3016 RMK A01 T03110150  RH  038%=      5-min Rain = 0
KST3 142116Z 26005KT 31/15 A3016 RMK A01 T03130147  RH  037%=      5-min Rain = 0
KST3 142117Z 30003KT 31/15 A3016 RMK A01 T03120146  RH  037%=      5-min Rain = 0
KST3 142118Z 34001KT 31/14 A3015 RMK A01 T03110142  RH  036%=      5-min Rain = 0
KST3 142119Z 29003KT 31/15 A3015 RMK A01 T03100147  RH  037%=      5-min Rain = 0
KST3 142120Z 28008KT 31/15 A3015 RMK A01 T03120151  RH  038%=      5-min Rain = 0
KST3 142121Z 27008KT 32/15 A3015 RMK A01 T03150147  RH  036%=      5-min Rain = 0
KST3 142122Z 27008KT 31/14 A3015 RMK A01 T03140142  RH  035%=      5-min Rain = 0
KST3 142123Z 28007KT 31/15 A3015 RMK A01 T03120146  RH  037%=      5-min Rain = 0
KST3 142124Z 27005KT 31/15 A3015 RMK A01 T03120147  RH  037%=      5-min Rain = 0
KST3 142125Z 26004KT 31/15 A3015 RMK A01 T03120145  RH  036%=      5-min Rain = 0
KST3 142126Z 26005KT 31/15 A3015 RMK A01 T03120146  RH  036%=      5-min Rain = 0
KST3 142127Z 26005KT 31/15 A3015 RMK A01 T03120147  RH  037%=      5-min Rain = 0
KST3 142128Z 23003KT 31/14 A3015 RMK A01 T03110142  RH  036%=      5-min Rain = 0
KST3 142129Z 23001KT 31/15 A3015 RMK A01 T03110147  RH  037%=      5-min Rain = 0
KST3 142130Z 19001KT 31/14 A3015 RMK A01 T03120143  RH  036%=      5-min Rain = 0
KST3 142131Z 20001KT 31/14 A3015 RMK A01 T03130141  RH  035%=      5-min Rain = 0
KST3 142132Z 22005KT 31/15 A3015 RMK A01 T03140147  RH  036%=      5-min Rain = 0
KST3 142133Z 20002KT 32/15 A3015 RMK A01 T03150147  RH  036%=      5-min Rain = 0
KST3 142134Z 20002KT 32/15 A3015 RMK A01 T03150147  RH  036%=      5-min Rain = 0
KST3 142135Z 22005KT 32/15 A3015 RMK A01 T03170147  RH  036%=      5-min Rain = 0
KST3 142136Z 25003KT 32/14 A3015 RMK A01 T03160144  RH  035%=      5-min Rain = 0
KST3 142137Z 29004KT 32/15 A3015 RMK A01 T03150148  RH  036%=      5-min Rain = 0
KST3 142138Z 27004KT 31/15 A3014 RMK A01 T03140152  RH  037%=      5-min Rain = 0
KST3 142139Z 25006KT 32/15 A3014 RMK A01 T03170153  RH  037%=      5-min Rain = 0
KST3 142140Z 24006KT 32/15 A3014 RMK A01 T03180148  RH  036%=      5-min Rain = 0
KST3 142141Z 23005KT 32/15 A3014 RMK A01 T03160149  RH  036%=      5-min Rain = 0
KST3 142142Z 26006KT 32/15 A3014 RMK A01 T03150150  RH  037%=      5-min Rain = 0
KST3 142143Z 27005KT 31/15 A3014 RMK A01 T03140146  RH  036%=      5-min Rain = 0
KST3 142144Z 28006KT 31/15 A3014 RMK A01 T03120148  RH  037%=      5-min Rain = 0
KST3 142145Z 30002KT 31/15 A3014 RMK A01 T03120147  RH  037%=      5-min Rain = 0
KST3 142146Z 33000KT 31/15 A3014 RMK A01 T03120146  RH  037%=      5-min Rain = 0
KST3 142147Z 34002KT 31/15 A3014 RMK A01 T03120148  RH  037%=      5-min Rain = 0
KST3 142148Z 26004KT 31/15 A3014 RMK A01 T03120151  RH  038%=      5-min Rain = 0
KST3 142149Z 27004KT 31/14 A3014 RMK A01 T03140144  RH  036%=      5-min Rain = 0
KST3 142150Z 27003KT 31/14 A3014 RMK A01 T03140143  RH  035%=      5-min Rain = 0
KST3 142151Z 28001KT 31/14 A3014 RMK A01 T03120141  RH  035%=      5-min Rain = 0
KST3 142152Z 26004KT 31/14 A3014 RMK A01 T03110143  RH  036%=      5-min Rain = 0
KST3 142153Z 26005KT 31/15 A3014 RMK A01 T03130145  RH  036%=      5-min Rain = 0
KST3 142154Z 26005KT 32/15 A3014 RMK A01 T03160150  RH  037%=      5-min Rain = 0
KST3 142155Z 26005KT 32/14 A3014 RMK A01 T03170142  RH  035%=      5-min Rain = 0
KST3 142156Z 24004KT 32/14 A3014 RMK A01 T03170144  RH  035%=      5-min Rain = 0
KST3 142157Z 24005KT 32/14 A3014 RMK A01 T03170144  RH  035%=      5-min Rain = 0
KST3 142158Z 25004KT 32/15 A3014 RMK A01 T03160148  RH  036%=      5-min Rain = 0
KST3 142159Z 25006KT 32/15 A3014 RMK A01 T03180149  RH  036%=      5-min Rain = 0
KST3 142200Z 24006KT 32/14 A3014 RMK A01 T03190142  RH  034%=      5-min Rain = 0
KST3 142201Z 23004KT 32/14 A3013 RMK A01 T03170141  RH  034%=      5-min Rain = 0
KST3 142202Z 26007KT 32/15 A3013 RMK A01 T03160145  RH  035%=      5-min Rain = 0
KST3 142203Z 27007KT 32/14 A3013 RMK A01 T03170143  RH  035%=      5-min Rain = 0
KST3 142204Z 29005KT 32/14 A3013 RMK A01 T03170144  RH  035%=      5-min Rain = 0
KST3 142205Z 28006KT 32/14 A3013 RMK A01 T03170137  RH  034%=      5-min Rain = 0
KST3 142206Z 28004KT 32/14 A3013 RMK A01 T03150136  RH  034%=      5-min Rain = 0
KST3 142207Z 28003KT 31/14 A3013 RMK A01 T03140137  RH  034%=      5-min Rain = 0
KST3 142208Z 23002KT 31/14 A3013 RMK A01 T03140140  RH  035%=      5-min Rain = 0
KST3 142209Z 22001KT 31/14 A3013 RMK A01 T03140143  RH  035%=      5-min Rain = 0
KST3 142210Z 25002KT 32/14 A3013 RMK A01 T03150142  RH  035%=      5-min Rain = 0
KST3 142211Z 26004KT 32/14 A3013 RMK A01 T03150144  RH  035%=      5-min Rain = 0
KST3 142212Z 24005KT 32/15 A3013 RMK A01 T03170146  RH  035%=      5-min Rain = 0
KST3 142213Z 24006KT 32/14 A3013 RMK A01 T03180144  RH  035%=      5-min Rain = 0
KST3 142214Z 28004KT 32/15 A3013 RMK A01 T03190148  RH  036%=      5-min Rain = 0
KST3 142215Z 31004KT 32/14 A3013 RMK A01 T03200143  RH  034%=      5-min Rain = 0
KST3 142216Z 31004KT 32/15 A3013 RMK A01 T03180146  RH  035%=      5-min Rain = 0
KST3 142217Z 32001KT 32/15 A3013 RMK A01 T03180149  RH  036%=      5-min Rain = 0
KST3 142218Z 34001KT 32/15 A3013 RMK A01 T03190146  RH  035%=      5-min Rain = 0
KST3 142219Z 26003KT 32/15 A3013 RMK A01 T03190146  RH  035%=      5-min Rain = 0
KST3 142220Z 27005KT 32/15 A3013 RMK A01 T03200147  RH  035%=      5-min Rain = 0
KST3 142221Z 24005KT 32/15 A3013 RMK A01 T03200145  RH  035%=      5-min Rain = 0
KST3 142222Z 24003KT 32/15 A3013 RMK A01 T03200149  RH  036%=      5-min Rain = 0
KST3 142223Z 27005KT 32/14 A3013 RMK A01 T03200143  RH  034%=      5-min Rain = 0
KST3 142224Z 27003KT 32/14 A3013 RMK A01 T03190141  RH  034%=      5-min Rain = 0
KST3 142225Z 25006KT 32/15 A3013 RMK A01 T03170148  RH  036%=      5-min Rain = 0
KST3 142226Z 24005KT 32/14 A3013 RMK A01 T03180144  RH  035%=      5-min Rain = 0
KST3 142227Z 25005KT 32/14 A3013 RMK A01 T03180144  RH  035%=      5-min Rain = 0
KST3 142228Z 25002KT 32/15 A3013 RMK A01 T03180145  RH  035%=      5-min Rain = 0
KST3 142229Z 04001KT 32/14 A3012 RMK A01 T03180142  RH  034%=      5-min Rain = 0
KST3 142230Z 28003KT 32/14 A3012 RMK A01 T03170143  RH  035%=      5-min Rain = 0
KST3 142231Z 29005KT 32/15 A3012 RMK A01 T03160145  RH  035%=      5-min Rain = 0
KST3 142232Z 28005KT 32/14 A3012 RMK A01 T03170144  RH  035%=      5-min Rain = 0
KST3 142233Z 25004KT 32/15 A3012 RMK A01 T03180147  RH  035%=      5-min Rain = 0
KST3 142234Z 24005KT 32/15 A3012 RMK A01 T03200147  RH  035%=      5-min Rain = 0
KST3 142235Z 23007KT 32/14 A3012 RMK A01 T03220140  RH  033%=      5-min Rain = 0
KST3 142236Z 23004KT 32/14 A3012 RMK A01 T03200137  RH  033%=      5-min Rain = 0
KST3 142237Z 22005KT 32/14 A3012 RMK A01 T03180139  RH  034%=      5-min Rain = 0
KST3 142238Z 22004KT 32/14 A3012 RMK A01 T03170143  RH  035%=      5-min Rain = 0
KST3 142239Z 22004KT 32/14 A3012 RMK A01 T03190143  RH  035%=      5-min Rain = 0
KST3 142240Z 22003KT 32/14 A3012 RMK A01 T03200140  RH  034%=      5-min Rain = 0
KST3 142241Z 22002KT 32/14 A3012 RMK A01 T03190140  RH  034%=      5-min Rain = 0
KST3 142242Z 23001KT 32/14 A3012 RMK A01 T03180138  RH  033%=      5-min Rain = 0
KST3 142243Z 22002KT 32/14 A3012 RMK A01 T03190140  RH  034%=      5-min Rain = 0
KST3 142244Z 25001KT 32/14 A3012 RMK A01 T03200140  RH  033%=      5-min Rain = 0
KST3 142245Z 24001KT 32/14 A3012 RMK A01 T03220144  RH  034%=      5-min Rain = 0
KST3 142246Z 24002KT 32/14 A3012 RMK A01 T03240143  RH  034%=      5-min Rain = 0
KST3 142247Z 26005KT 32/14 A3012 RMK A01 T03240143  RH  033%=      5-min Rain = 0
KST3 142248Z 28006KT 32/14 A3012 RMK A01 T03240139  RH  033%=      5-min Rain = 0
KST3 142249Z 27006KT 32/14 A3012 RMK A01 T03220138  RH  033%=      5-min Rain = 0
KST3 142250Z 27005KT 32/14 A3012 RMK A01 T03200136  RH  033%=      5-min Rain = 0
KST3 142251Z 28007KT 32/14 A3012 RMK A01 T03200137  RH  033%=      5-min Rain = 0
KST3 142252Z 27004KT 32/13 A3012 RMK A01 T03200134  RH  032%=      5-min Rain = 0
KST3 142253Z 28004KT 32/14 A3012 RMK A01 T03190136  RH  033%=      5-min Rain = 0
KST3 142254Z 30007KT 32/13 A3012 RMK A01 T03190133  RH  032%=      5-min Rain = 0
KST3 142255Z 29006KT 32/13 A3012 RMK A01 T03190130  RH  032%=      5-min Rain = 0
KST3 142256Z 29005KT 32/13 A3012 RMK A01 T03180130  RH  032%=      5-min Rain = 0
KST3 142257Z 29004KT 32/13 A3012 RMK A01 T03170132  RH  032%=      5-min Rain = 0
KST3 142258Z 28005KT 32/13 A3012 RMK A01 T03180132  RH  032%=      5-min Rain = 0
KST3 142259Z 28005KT 32/13 A3012 RMK A01 T03180126  RH  031%=      5-min Rain = 0
KST3 142300Z 23003KT 32/13 A3012 RMK A01 T03160130  RH  032%=      5-min Rain = 0
KST3 142301Z 22003KT 32/13 A3012 RMK A01 T03160128  RH  032%=      5-min Rain = 0
KST3 142302Z 20003KT 32/13 A3012 RMK A01 T03150130  RH  032%=      5-min Rain = 0
KST3 142303Z 19002KT 32/14 A3012 RMK A01 T03160138  RH  034%=      5-min Rain = 0
KST3 142304Z 05001KT 32/13 A3012 RMK A01 T03190132  RH  032%=      5-min Rain = 0
KST3 142305Z 31004KT 32/13 A3012 RMK A01 T03190130  RH  032%=      5-min Rain = 0
KST3 142306Z 33002KT 32/13 A3012 RMK A01 T03190133  RH  032%=      5-min Rain = 0
KST3 142307Z 33002KT 32/13 A3012 RMK A01 T03180129  RH  031%=      5-min Rain = 0
KST3 142308Z 30002KT 32/13 A3012 RMK A01 T03190133  RH  032%=      5-min Rain = 0
KST3 142309Z 29003KT 32/13 A3012 RMK A01 T03200134  RH  032%=      5-min Rain = 0
KST3 142310Z 28005KT 32/14 A3012 RMK A01 T03210136  RH  032%=      5-min Rain = 0
KST3 142311Z 28005KT 32/13 A3012 RMK A01 T03210128  RH  031%=      5-min Rain = 0
KST3 142312Z 28006KT 32/13 A3012 RMK A01 T03200129  RH  031%=      5-min Rain = 0
KST3 142313Z 30006KT 32/13 A3012 RMK A01 T03190129  RH  031%=      5-min Rain = 0
KST3 142314Z 31006KT 32/13 A3012 RMK A01 T03200128  RH  031%=      5-min Rain = 0
KST3 142315Z 30006KT 32/13 A3012 RMK A01 T03200128  RH  031%=      5-min Rain = 0
KST3 142316Z 29005KT 32/13 A3012 RMK A01 T03190127  RH  031%=      5-min Rain = 0
KST3 142317Z 30004KT 32/13 A3012 RMK A01 T03190130  RH  032%=      5-min Rain = 0
KST3 142318Z 28003KT 32/13 A3012 RMK A01 T03180129  RH  032%=      5-min Rain = 0
KST3 142319Z 28005KT 32/14 A3012 RMK A01 T03180135  RH  033%=      5-min Rain = 0
KST3 142320Z 28005KT 32/13 A3012 RMK A01 T03190134  RH  032%=      5-min Rain = 0
KST3 142321Z 26003KT 32/13 A3012 RMK A01 T03190133  RH  032%=      5-min Rain = 0
KST3 142322Z 29005KT 32/13 A3012 RMK A01 T03190133  RH  032%=      5-min Rain = 0
KST3 142323Z 29005KT 32/14 A3012 RMK A01 T03190140  RH  034%=      5-min Rain = 0
KST3 142324Z 30005KT 32/13 A3012 RMK A01 T03220134  RH  032%=      5-min Rain = 0
KST3 142325Z 30004KT 32/13 A3012 RMK A01 T03210134  RH  032%=      5-min Rain = 0
KST3 142326Z 30006KT 32/13 A3012 RMK A01 T03200134  RH  032%=      5-min Rain = 0
KST3 142327Z 29005KT 32/13 A3012 RMK A01 T03200133  RH  032%=      5-min Rain = 0
KST3 142328Z 30003KT 32/13 A3012 RMK A01 T03190134  RH  032%=      5-min Rain = 0
KST3 142329Z 31005KT 32/13 A3012 RMK A01 T03190131  RH  032%=      5-min Rain = 0
KST3 142330Z 30002KT 32/13 A3012 RMK A01 T03190131  RH  032%=      5-min Rain = 0
KST3 142331Z 31003KT 32/14 A3011 RMK A01 T03180136  RH  033%=      5-min Rain = 0
KST3 142332Z 31003KT 32/13 A3011 RMK A01 T03190131  RH  032%=      5-min Rain = 0
KST3 142333Z 30003KT 32/13 A3011 RMK A01 T03190130  RH  032%=      5-min Rain = 0
KST3 142334Z 29001KT 32/13 A3011 RMK A01 T03190132  RH  032%=      5-min Rain = 0
KST3 142335Z 28001KT 32/13 A3011 RMK A01 T03190130  RH  032%=      5-min Rain = 0
KST3 142336Z 27001KT 32/13 A3011 RMK A01 T03190131  RH  032%=      5-min Rain = 0
KST3 142337Z 24003KT 32/14 A3011 RMK A01 T03200139  RH  033%=      5-min Rain = 0
KST3 142338Z 21002KT 32/15 A3011 RMK A01 T03220147  RH  035%=      5-min Rain = 0
KST3 142339Z 23002KT 32/14 A3011 RMK A01 T03240143  RH  034%=      5-min Rain = 0
KST3 142340Z 22003KT 32/14 A3011 RMK A01 T03230141  RH  033%=      5-min Rain = 0
KST3 142341Z 22001KT 32/14 A3011 RMK A01 T03220139  RH  033%=      5-min Rain = 0
KST3 142342Z 19004KT 32/14 A3011 RMK A01 T03220143  RH  034%=      5-min Rain = 0
KST3 142343Z 17004KT 32/14 A3011 RMK A01 T03210140  RH  033%=      5-min Rain = 0
KST3 142344Z 19004KT 32/14 A3011 RMK A01 T03180141  RH  034%=      5-min Rain = 0
KST3 142345Z 16005KT 32/14 A3011 RMK A01 T03180142  RH  034%=      5-min Rain = 0
KST3 142346Z 15005KT 32/14 A3011 RMK A01 T03170143  RH  035%=      5-min Rain = 0
KST3 142347Z 14004KT 32/14 A3011 RMK A01 T03160144  RH  035%=      5-min Rain = 0
KST3 142348Z 15004KT 32/15 A3011 RMK A01 T03160145  RH  035%=      5-min Rain = 0
KST3 142349Z 16005KT 32/14 A3011 RMK A01 T03160144  RH  035%=      5-min Rain = 0
KST3 142350Z 15005KT 32/14 A3011 RMK A01 T03150142  RH  035%=      5-min Rain = 0
KST3 142351Z 16004KT 31/15 A3011 RMK A01 T03140145  RH  036%=      5-min Rain = 0
KST3 142352Z 16004KT 31/14 A3011 RMK A01 T03140143  RH  035%=      5-min Rain = 0
KST3 142353Z 16004KT 31/14 A3011 RMK A01 T03130141  RH  035%=      5-min Rain = 0
KST3 142354Z 16004KT 31/14 A3011 RMK A01 T03140143  RH  036%=      5-min Rain = 0
KST3 142355Z 15004KT 31/14 A3011 RMK A01 T03140139  RH  035%=      5-min Rain = 0
KST3 142356Z 16004KT 31/14 A3011 RMK A01 T03140143  RH  035%=      5-min Rain = 0
KST3 142357Z 15004KT 31/14 A3011 RMK A01 T03140139  RH  035%=      5-min Rain = 0
KST3 142358Z 15005KT 31/14 A3011 RMK A01 T03140139  RH  034%=      5-min Rain = 0
KST3 142359Z 15005KT 31/14 A3011 RMK A01 T03140141  RH  035%=      5-min Rain = 0
KST3 150000Z 17007KT 31/14 A3011 RMK A01 T03140142  RH  035%=      5-min Rain = 0
KST3 150001Z 19006KT 31/14 A3011 RMK A01 T03130140  RH  035%=      5-min Rain = 0
KST3 150002Z 19006KT 31/14 A3011 RMK A01 T03120140  RH  035%=      5-min Rain = 0
KST3 150003Z 18006KT 31/14 A3011 RMK A01 T03120142  RH  036%=      5-min Rain = 0
KST3 150004Z 19006KT 31/14 A3011 RMK A01 T03110138  RH  035%=      5-min Rain = 0
KST3 150005Z 18006KT 31/14 A3011 RMK A01 T03110142  RH  036%=      5-min Rain = 0
KST3 150006Z 17006KT 31/14 A3011 RMK A01 T03110136  RH  034%=      5-min Rain = 0
KST3 150007Z 17005KT 31/14 A3011 RMK A01 T03100137  RH  035%=      5-min Rain = 0
KST3 150008Z 17006KT 31/14 A3011 RMK A01 T03090137  RH  035%=      5-min Rain = 0
KST3 150009Z 17006KT 31/13 A3011 RMK A01 T03090134  RH  034%=      5-min Rain = 0
KST3 150010Z 16006KT 31/13 A3011 RMK A01 T03100133  RH  034%=      5-min Rain = 0
KST3 150011Z 16005KT 31/14 A3011 RMK A01 T03100138  RH  035%=      5-min Rain = 0
KST3 150012Z 15005KT 31/14 A3011 RMK A01 T03110137  RH  035%=      5-min Rain = 0
KST3 150013Z 16005KT 31/14 A3011 RMK A01 T03120135  RH  034%=      5-min Rain = 0
KST3 150014Z 15003KT 31/13 A3011 RMK A01 T03110133  RH  034%=      5-min Rain = 0
KST3 150015Z 16004KT 31/13 A3011 RMK A01 T03110134  RH  034%=      5-min Rain = 0
KST3 150016Z 16004KT 31/13 A3011 RMK A01 T03110134  RH  034%=      5-min Rain = 0
KST3 150017Z 16003KT 31/14 A3011 RMK A01 T03110137  RH  035%=      5-min Rain = 0
KST3 150018Z 16003KT 31/13 A3011 RMK A01 T03120133  RH  034%=      5-min Rain = 0
KST3 150019Z 15003KT 31/14 A3011 RMK A01 T03120137  RH  034%=      5-min Rain = 0
KST3 150020Z 15002KT 31/13 A3011 RMK A01 T03120134  RH  034%=      5-min Rain = 0
KST3 150021Z 16002KT 31/13 A3011 RMK A01 T03120133  RH  034%=      5-min Rain = 0
KST3 150022Z 17002KT 31/13 A3011 RMK A01 T03110134  RH  034%=      5-min Rain = 0
KST3 150023Z 17001KT 31/14 A3011 RMK A01 T03100136  RH  034%=      5-min Rain = 0
KST3 150024Z 17001KT 31/14 A3011 RMK A01 T03100135  RH  034%=      5-min Rain = 0
KST3 150025Z 17001KT 31/13 A3011 RMK A01 T03090133  RH  034%=      5-min Rain = 0
KST3 150026Z 16001KT 31/14 A3011 RMK A01 T03090137  RH  035%=      5-min Rain = 0
KST3 150027Z 17001KT 31/14 A3011 RMK A01 T03090138  RH  035%=      5-min Rain = 0
KST3 150028Z 19000KT 31/13 A3011 RMK A01 T03080133  RH  034%=      5-min Rain = 0
KST3 150029Z 00000KT 31/13 A3011 RMK A01 T03070129  RH  034%=      5-min Rain = 0
KST3 150030Z 00000KT 31/13 A3011 RMK A01 T03070129  RH  034%=      5-min Rain = 0
KST3 150031Z 00000KT 31/13 A3011 RMK A01 T03070132  RH  034%=      5-min Rain = 0
KST3 150032Z 17001KT 31/14 A3011 RMK A01 T03070136  RH  035%=      5-min Rain = 0
KST3 150033Z 17002KT 31/13 A3011 RMK A01 T03070131  RH  034%=      5-min Rain = 0
KST3 150034Z 18000KT 31/13 A3011 RMK A01 T03060130  RH  034%=      5-min Rain = 0
KST3 150035Z 00000KT 31/13 A3011 RMK A01 T03060132  RH  035%=      5-min Rain = 0
KST3 150036Z 00000KT 31/14 A3011 RMK A01 T03060136  RH  035%=      5-min Rain = 0
KST3 150037Z 17000KT 31/13 A3011 RMK A01 T03060133  RH  035%=      5-min Rain = 0
KST3 150038Z 00000KT 31/13 A3011 RMK A01 T03050134  RH  035%=      5-min Rain = 0
KST3 150039Z 15001KT 31/13 A3011 RMK A01 T03050133  RH  035%=      5-min Rain = 0
KST3 150040Z 14001KT 31/13 A3011 RMK A01 T03050133  RH  035%=      5-min Rain = 0
KST3 150041Z 14001KT 30/14 A3011 RMK A01 T03040135  RH  036%=      5-min Rain = 0
KST3 150042Z 14001KT 30/13 A3011 RMK A01 T03040129  RH  034%=      5-min Rain = 0
KST3 150043Z 14001KT 30/13 A3011 RMK A01 T03040133  RH  035%=      5-min Rain = 0
KST3 150044Z 14001KT 30/13 A3011 RMK A01 T03040134  RH  035%=      5-min Rain = 0
KST3 150045Z 14001KT 30/13 A3011 RMK A01 T03040133  RH  035%=      5-min Rain = 0
KST3 150046Z 14002KT 30/14 A3011 RMK A01 T03030137  RH  036%=      5-min Rain = 0
KST3 150047Z 14001KT 30/14 A3011 RMK A01 T03020139  RH  037%=      5-min Rain = 0
KST3 150048Z 14002KT 30/14 A3011 RMK A01 T03020136  RH  036%=      5-min Rain = 0
KST3 150049Z 14001KT 30/13 A3011 RMK A01 T03020134  RH  036%=      5-min Rain = 0
KST3 150050Z 14001KT 30/14 A3011 RMK A01 T03020135  RH  036%=      5-min Rain = 0
KST3 150051Z 14002KT 30/14 A3011 RMK A01 T03020136  RH  036%=      5-min Rain = 0
KST3 150052Z 14001KT 30/14 A3011 RMK A01 T03020137  RH  037%=      5-min Rain = 0
KST3 150053Z 12002KT 30/14 A3012 RMK A01 T03010138  RH  037%=      5-min Rain = 0
KST3 150054Z 12002KT 30/14 A3012 RMK A01 T03000140  RH  038%=      5-min Rain = 0
KST3 150055Z 12002KT 30/14 A3012 RMK A01 T03000140  RH  038%=      5-min Rain = 0
KST3 150056Z 12002KT 30/14 A3012 RMK A01 T02990141  RH  038%=      5-min Rain = 0
KST3 150057Z 12002KT 30/14 A3012 RMK A01 T02990141  RH  038%=      5-min Rain = 0
KST3 150058Z 12002KT 30/14 A3012 RMK A01 T02990138  RH  038%=      5-min Rain = 0
KST3 150059Z 12002KT 30/14 A3012 RMK A01 T02990140  RH  038%=      5-min Rain = 0
KST3 150100Z 12002KT 30/14 A3012 RMK A01 T02980140  RH  038%=      5-min Rain = 0
KST3 150101Z 13002KT 30/14 A3012 RMK A01 T02980141  RH  038%=      5-min Rain = 0
KST3 150102Z 13003KT 30/14 A3012 RMK A01 T02970141  RH  038%=      5-min Rain = 0
KST3 150103Z 14003KT 30/14 A3012 RMK A01 T02970140  RH  038%=      5-min Rain = 0
KST3 150104Z 15002KT 30/14 A3012 RMK A01 T02970140  RH  038%=      5-min Rain = 0
KST3 150105Z 14002KT 30/14 A3012 RMK A01 T02970140  RH  038%=      5-min Rain = 0
KST3 150106Z 14002KT 30/14 A3012 RMK A01 T02970141  RH  039%=      5-min Rain = 0
KST3 150107Z 14002KT 30/14 A3012 RMK A01 T02960139  RH  038%=      5-min Rain = 0
KST3 150108Z 14002KT 30/14 A3012 RMK A01 T02960139  RH  038%=      5-min Rain = 0
KST3 150109Z 14002KT 30/14 A3012 RMK A01 T02960139  RH  038%=      5-min Rain = 0
KST3 150110Z 14003KT 30/14 A3012 RMK A01 T02960141  RH  039%=      5-min Rain = 0
KST3 150111Z 14003KT 30/14 A3012 RMK A01 T02960140  RH  039%=      5-min Rain = 0
KST3 150112Z 13004KT 30/14 A3012 RMK A01 T02960140  RH  039%=      5-min Rain = 0
KST3 150113Z 12004KT 30/14 A3012 RMK A01 T02960140  RH  039%=      5-min Rain = 0
KST3 150114Z 12004KT 30/14 A3012 RMK A01 T02950140  RH  039%=      5-min Rain = 0
KST3 150115Z 12004KT 29/14 A3012 RMK A01 T02940141  RH  039%=      5-min Rain = 0
KST3 150116Z 12005KT 29/14 A3012 RMK A01 T02930143  RH  040%=      5-min Rain = 0
KST3 150117Z 12004KT 29/14 A3012 RMK A01 T02910142  RH  040%=      5-min Rain = 0
KST3 150118Z 13004KT 29/14 A3012 RMK A01 T02910142  RH  040%=      5-min Rain = 0
KST3 150119Z 13004KT 29/14 A3012 RMK A01 T02900142  RH  040%=      5-min Rain = 0
KST3 150120Z 14004KT 29/14 A3012 RMK A01 T02890142  RH  040%=      5-min Rain = 0
KST3 150121Z 14004KT 29/14 A3012 RMK A01 T02890142  RH  041%=      5-min Rain = 0
KST3 150122Z 14004KT 29/14 A3012 RMK A01 T02880143  RH  041%=      5-min Rain = 0
KST3 150123Z 14005KT 29/14 A3012 RMK A01 T02870144  RH  041%=      5-min Rain = 0
KST3 150124Z 14004KT 29/14 A3012 RMK A01 T02860144  RH  042%=      5-min Rain = 0
KST3 150125Z 14004KT 29/14 A3012 RMK A01 T02850144  RH  042%=      5-min Rain = 0
KST3 150126Z 14005KT 28/14 A3012 RMK A01 T02840144  RH  042%=      5-min Rain = 0
KST3 150127Z 15004KT 28/14 A3012 RMK A01 T02840144  RH  042%=      5-min Rain = 0
KST3 150128Z 15004KT 28/14 A3012 RMK A01 T02830144  RH  042%=      5-min Rain = 0
KST3 150129Z 15004KT 28/14 A3012 RMK A01 T02830144  RH  043%=      5-min Rain = 0
KST3 150130Z 15004KT 28/14 A3012 RMK A01 T02820144  RH  043%=      5-min Rain = 0
KST3 150131Z 15004KT 28/14 A3012 RMK A01 T02820143  RH  043%=      5-min Rain = 0
KST3 150132Z 15004KT 28/14 A3012 RMK A01 T02810143  RH  043%=      5-min Rain = 0
KST3 150133Z 15004KT 28/14 A3012 RMK A01 T02810142  RH  043%=      5-min Rain = 0
KST3 150134Z 15004KT 28/14 A3012 RMK A01 T02810142  RH  043%=      5-min Rain = 0
KST3 150135Z 15004KT 28/14 A3012 RMK A01 T02820142  RH  042%=      5-min Rain = 0
KST3 150136Z 15003KT 28/14 A3012 RMK A01 T02810142  RH  043%=      5-min Rain = 0
KST3 150137Z 15004KT 28/14 A3012 RMK A01 T02810142  RH  043%=      5-min Rain = 0
KST3 150138Z 15003KT 28/14 A3012 RMK A01 T02810142  RH  042%=      5-min Rain = 0
KST3 150139Z 15003KT 28/14 A3012 RMK A01 T02810143  RH  043%=      5-min Rain = 0
KST3 150140Z 15003KT 28/14 A3012 RMK A01 T02810143  RH  043%=      5-min Rain = 0
KST3 150141Z 15003KT 28/14 A3012 RMK A01 T02800141  RH  043%=      5-min Rain = 0
KST3 150142Z 14004KT 28/14 A3012 RMK A01 T02800143  RH  043%=      5-min Rain = 0
KST3 150143Z 14004KT 28/14 A3012 RMK A01 T02800143  RH  043%=      5-min Rain = 0
KST3 150144Z 14004KT 28/14 A3012 RMK A01 T02790141  RH  043%=      5-min Rain = 0
KST3 150145Z 15004KT 28/14 A3012 RMK A01 T02790140  RH  042%=      5-min Rain = 0
KST3 150146Z 14004KT 28/14 A3012 RMK A01 T02790139  RH  042%=      5-min Rain = 0
KST3 150147Z 15004KT 28/14 A3012 RMK A01 T02790139  RH  042%=      5-min Rain = 0
KST3 150148Z 15004KT 28/14 A3012 RMK A01 T02790139  RH  042%=      5-min Rain = 0
KST3 150149Z 15004KT 28/14 A3012 RMK A01 T02790139  RH  042%=      5-min Rain = 0
KST3 150150Z 15004KT 28/14 A3012 RMK A01 T02790139  RH  042%=      5-min Rain = 0
KST3 150151Z 15004KT 28/14 A3013 RMK A01 T02780139  RH  042%=      5-min Rain = 0
KST3 150152Z 15004KT 28/14 A3013 RMK A01 T02780138  RH  042%=      5-min Rain = 0
KST3 150153Z 15004KT 28/14 A3013 RMK A01 T02780138  RH  042%=      5-min Rain = 0
KST3 150154Z 15004KT 28/14 A3013 RMK A01 T02780137  RH  042%=      5-min Rain = 0
KST3 150155Z 15004KT 28/14 A3013 RMK A01 T02780137  RH  042%=      5-min Rain = 0
KST3 150156Z 15004KT 28/14 A3013 RMK A01 T02780137  RH  042%=      5-min Rain = 0
KST3 150157Z 15004KT 28/14 A3013 RMK A01 T02780137  RH  042%=      5-min Rain = 0
KST3 150158Z 15004KT 28/14 A3013 RMK A01 T02780136  RH  042%=      5-min Rain = 0
KST3 150159Z 15004KT 28/14 A3013 RMK A01 T02780137  RH  042%=      5-min Rain = 0
KST3 150200Z 15004KT 28/14 A3013 RMK A01 T02780136  RH  041%=      5-min Rain = 0
KST3 150201Z 16005KT 28/14 A3013 RMK A01 T02790137  RH  042%=      5-min Rain = 0
KST3 150202Z 16005KT 28/14 A3013 RMK A01 T02790136  RH  042%=      5-min Rain = 0
KST3 150203Z 16005KT 28/14 A3013 RMK A01 T02790138  RH  042%=      5-min Rain = 0
KST3 150204Z 17006KT 28/14 A3013 RMK A01 T02780139  RH  043%=      5-min Rain = 0
KST3 150205Z 17007KT 28/14 A3013 RMK A01 T02770139  RH  043%=      5-min Rain = 0
KST3 150206Z 17006KT 28/14 A3013 RMK A01 T02760140  RH  043%=      5-min Rain = 0
KST3 150207Z 17006KT 28/14 A3013 RMK A01 T02760141  RH  043%=      5-min Rain = 0
KST3 150208Z 17007KT 28/14 A3013 RMK A01 T02760140  RH  043%=      5-min Rain = 0
KST3 150209Z 17007KT 28/14 A3013 RMK A01 T02760139  RH  043%=      5-min Rain = 0
KST3 150210Z 18006KT 28/14 A3014 RMK A01 T02770140  RH  043%=      5-min Rain = 0
KST3 150211Z 18006KT 28/14 A3014 RMK A01 T02780141  RH  043%=      5-min Rain = 0
KST3 150212Z 18007KT 28/14 A3014 RMK A01 T02780141  RH  043%=      5-min Rain = 0
KST3 150213Z 18006KT 28/14 A3014 RMK A01 T02780142  RH  043%=      5-min Rain = 0
KST3 150214Z 18007KT 28/14 A3014 RMK A01 T02770142  RH  044%=      5-min Rain = 0
KST3 150215Z 18007KT 28/14 A3014 RMK A01 T02760143  RH  044%=      5-min Rain = 0
KST3 150216Z 18007KT 28/14 A3014 RMK A01 T02750142  RH  044%=      5-min Rain = 0
KST3 150217Z 18006KT 28/14 A3014 RMK A01 T02750142  RH  044%=      5-min Rain = 0
KST3 150218Z 18006KT 27/14 A3014 RMK A01 T02740142  RH  044%=      5-min Rain = 0
KST3 150219Z 18006KT 27/14 A3014 RMK A01 T02740142  RH  044%=      5-min Rain = 0
KST3 150220Z 17006KT 27/14 A3014 RMK A01 T02740142  RH  044%=      5-min Rain = 0
KST3 150221Z 18006KT 27/14 A3014 RMK A01 T02740143  RH  045%=      5-min Rain = 0
KST3 150222Z 17006KT 27/14 A3014 RMK A01 T02740143  RH  045%=      5-min Rain = 0
KST3 150223Z 17006KT 27/14 A3014 RMK A01 T02740143  RH  045%=      5-min Rain = 0
KST3 150224Z 17006KT 27/14 A3014 RMK A01 T02740143  RH  045%=      5-min Rain = 0
KST3 150225Z 17006KT 27/14 A3014 RMK A01 T02740144  RH  045%=      5-min Rain = 0
KST3 150226Z 17006KT 27/15 A3014 RMK A01 T02740145  RH  045%=      5-min Rain = 0
KST3 150227Z 17005KT 27/14 A3014 RMK A01 T02730144  RH  045%=      5-min Rain = 0
KST3 150228Z 17005KT 27/14 A3014 RMK A01 T02720144  RH  045%=      5-min Rain = 0
KST3 150229Z 17005KT 27/15 A3014 RMK A01 T02720145  RH  046%=      5-min Rain = 0
KST3 150230Z 17005KT 27/14 A3014 RMK A01 T02710144  RH  046%=      5-min Rain = 0
KST3 150231Z 17006KT 27/14 A3014 RMK A01 T02710143  RH  045%=      5-min Rain = 0
KST3 150232Z 17006KT 27/14 A3014 RMK A01 T02710144  RH  046%=      5-min Rain = 0
KST3 150233Z 16006KT 27/14 A3014 RMK A01 T02710142  RH  045%=      5-min Rain = 0
KST3 150234Z 16006KT 27/14 A3014 RMK A01 T02720141  RH  045%=      5-min Rain = 0
KST3 150235Z 17006KT 27/14 A3014 RMK A01 T02730142  RH  045%=      5-min Rain = 0
KST3 150236Z 16006KT 27/14 A3014 RMK A01 T02730143  RH  045%=      5-min Rain = 0
KST3 150237Z 17006KT 27/14 A3014 RMK A01 T02720143  RH  045%=      5-min Rain = 0
KST3 150238Z 16006KT 27/14 A3014 RMK A01 T02710142  RH  045%=      5-min Rain = 0
KST3 150239Z 16005KT 27/14 A3014 RMK A01 T02720143  RH  045%=      5-min Rain = 0
KST3 150240Z 16006KT 27/14 A3014 RMK A01 T02710142  RH  045%=      5-min Rain = 0
KST3 150241Z 16005KT 27/14 A3014 RMK A01 T02710142  RH  045%=      5-min Rain = 0
KST3 150242Z 16005KT 27/14 A3014 RMK A01 T02710142  RH  045%=      5-min Rain = 0
KST3 150243Z 16005KT 27/14 A3014 RMK A01 T02710142  RH  045%=      5-min Rain = 0
KST3 150244Z 16005KT 27/14 A3014 RMK A01 T02710142  RH  045%=      5-min Rain = 0
KST3 150245Z 16005KT 27/14 A3014 RMK A01 T02710142  RH  045%=      5-min Rain = 0
KST3 150246Z 16005KT 27/14 A3014 RMK A01 T02710142  RH  045%=      5-min Rain = 0
KST3 150247Z 16005KT 27/14 A3014 RMK A01 T02700143  RH  045%=      5-min Rain = 0
KST3 150248Z 16005KT 27/14 A3014 RMK A01 T02700143  RH  046%=      5-min Rain = 0
KST3 150249Z 17005KT 27/14 A3015 RMK A01 T02690143  RH  046%=      5-min Rain = 0
KST3 150250Z 16005KT 27/14 A3015 RMK A01 T02680143  RH  046%=      5-min Rain = 0
KST3 150251Z 16006KT 27/14 A3015 RMK A01 T02670143  RH  046%=      5-min Rain = 0
KST3 150252Z 16005KT 27/14 A3015 RMK A01 T02660143  RH  047%=      5-min Rain = 0
KST3 150253Z 16005KT 27/14 A3015 RMK A01 T02660143  RH  047%=      5-min Rain = 0
KST3 150254Z 16004KT 27/14 A3015 RMK A01 T02650143  RH  047%=      5-min Rain = 0
KST3 150255Z 16004KT 27/14 A3015 RMK A01 T02650144  RH  047%=      5-min Rain = 0
KST3 150256Z 16004KT 26/14 A3015 RMK A01 T02640143  RH  047%=      5-min Rain = 0
KST3 150257Z 16004KT 26/14 A3015 RMK A01 T02640143  RH  047%=      5-min Rain = 0
KST3 150258Z 16004KT 26/14 A3015 RMK A01 T02640143  RH  047%=      5-min Rain = 0
KST3 150259Z 17004KT 26/14 A3015 RMK A01 T02640142  RH  047%=      5-min Rain = 0
KST3 150300Z 16004KT 26/14 A3015 RMK A01 T02640143  RH  047%=      5-min Rain = 0
KST3 150301Z 16004KT 26/14 A3015 RMK A01 T02640143  RH  047%=      5-min Rain = 0
KST3 150302Z 17005KT 26/14 A3015 RMK A01 T02640143  RH  047%=      5-min Rain = 0
KST3 150303Z 16005KT 26/14 A3015 RMK A01 T02640142  RH  047%=      5-min Rain = 0
KST3 150304Z 16006KT 26/14 A3015 RMK A01 T02640141  RH  047%=      5-min Rain = 0
KST3 150305Z 16006KT 26/14 A3015 RMK A01 T02640140  RH  046%=      5-min Rain = 0
KST3 150306Z 17006KT 27/14 A3015 RMK A01 T02650140  RH  046%=      5-min Rain = 0
KST3 150307Z 17006KT 27/14 A3015 RMK A01 T02650142  RH  047%=      5-min Rain = 0
KST3 150308Z 16006KT 26/14 A3015 RMK A01 T02640141  RH  047%=      5-min Rain = 0
KST3 150309Z 16006KT 26/14 A3015 RMK A01 T02640142  RH  047%=      5-min Rain = 0
KST3 150310Z 16006KT 26/14 A3015 RMK A01 T02630141  RH  047%=      5-min Rain = 0
KST3 150311Z 16006KT 26/14 A3015 RMK A01 T02630141  RH  047%=      5-min Rain = 0
KST3 150312Z 16007KT 26/14 A3015 RMK A01 T02630141  RH  047%=      5-min Rain = 0
KST3 150313Z 16006KT 26/14 A3015 RMK A01 T02630141  RH  047%=      5-min Rain = 0
KST3 150314Z 16007KT 26/14 A3016 RMK A01 T02630141  RH  047%=      5-min Rain = 0
KST3 150315Z 16006KT 26/14 A3016 RMK A01 T02630141  RH  047%=      5-min Rain = 0
KST3 150316Z 16006KT 26/14 A3016 RMK A01 T02620143  RH  048%=      5-min Rain = 0
KST3 150317Z 15006KT 26/14 A3016 RMK A01 T02610143  RH  048%=      5-min Rain = 0
KST3 150318Z 15007KT 26/14 A3016 RMK A01 T02610141  RH  048%=      5-min Rain = 0
KST3 150319Z 15007KT 26/14 A3016 RMK A01 T02610141  RH  048%=      5-min Rain = 0
KST3 150320Z 15006KT 26/14 A3016 RMK A01 T02610141  RH  047%=      5-min Rain = 0
KST3 150321Z 16007KT 26/14 A3016 RMK A01 T02610141  RH  048%=      5-min Rain = 0
KST3 150322Z 16006KT 26/14 A3016 RMK A01 T02610142  RH  048%=      5-min Rain = 0
KST3 150323Z 16007KT 26/14 A3016 RMK A01 T02600142  RH  048%=      5-min Rain = 0
KST3 150324Z 16007KT 26/14 A3016 RMK A01 T02590142  RH  048%=      5-min Rain = 0
KST3 150325Z 16006KT 26/14 A3016 RMK A01 T02600142  RH  048%=      5-min Rain = 0
KST3 150326Z 16006KT 26/14 A3016 RMK A01 T02590143  RH  049%=      5-min Rain = 0
KST3 150327Z 16006KT 26/14 A3016 RMK A01 T02580142  RH  049%=      5-min Rain = 0
KST3 150328Z 16006KT 26/14 A3016 RMK A01 T02580142  RH  049%=      5-min Rain = 0
KST3 150329Z 16005KT 26/14 A3017 RMK A01 T02580142  RH  049%=      5-min Rain = 0
KST3 150330Z 15006KT 26/14 A3017 RMK A01 T02580142  RH  049%=      5-min Rain = 0
KST3 150331Z 16005KT 26/14 A3017 RMK A01 T02580142  RH  049%=      5-min Rain = 0
KST3 150332Z 15005KT 26/14 A3017 RMK A01 T02570143  RH  049%=      5-min Rain = 0
KST3 150333Z 15004KT 26/14 A3017 RMK A01 T02570142  RH  049%=      5-min Rain = 0
KST3 150334Z 14003KT 26/14 A3017 RMK A01 T02570142  RH  049%=      5-min Rain = 0
KST3 150335Z 13003KT 26/14 A3017 RMK A01 T02570142  RH  049%=      5-min Rain = 0
KST3 150336Z 10003KT 26/14 A3017 RMK A01 T02570143  RH  049%=      5-min Rain = 0
KST3 150337Z 07006KT 25/15 A3018 RMK A01 T02540146  RH  051%=      5-min Rain = 0
KST3 150338Z 08004KT 25/15 A3018 RMK A01 T02500148  RH  053%=      5-min Rain = 0
KST3 150339Z 09004KT 25/15 A3018 RMK A01 T02460147  RH  054%=      5-min Rain = 0
KST3 150340Z 10004KT 24/15 A3018 RMK A01 T02440147  RH  054%=      5-min Rain = 0
KST3 150341Z 11003KT 24/15 A3018 RMK A01 T02430146  RH  055%=      5-min Rain = 0
KST3 150342Z 12004KT 24/14 A3018 RMK A01 T02430144  RH  054%=      5-min Rain = 0
KST3 150343Z 12005KT 24/14 A3018 RMK A01 T02440144  RH  054%=      5-min Rain = 0
KST3 150344Z 13005KT 24/14 A3018 RMK A01 T02440143  RH  053%=      5-min Rain = 0
KST3 150345Z 13004KT 25/14 A3018 RMK A01 T02460143  RH  053%=      5-min Rain = 0
KST3 150346Z 14004KT 25/14 A3018 RMK A01 T02480143  RH  052%=      5-min Rain = 0
KST3 150347Z 15004KT 25/14 A3018 RMK A01 T02490143  RH  052%=      5-min Rain = 0
KST3 150348Z 15005KT 25/14 A3018 RMK A01 T02490143  RH  052%=      5-min Rain = 0
KST3 150349Z 15004KT 25/14 A3018 RMK A01 T02500143  RH  051%=      5-min Rain = 0
KST3 150350Z 15004KT 25/14 A3018 RMK A01 T02500143  RH  051%=      5-min Rain = 0
KST3 150351Z 15003KT 25/14 A3018 RMK A01 T02500144  RH  052%=      5-min Rain = 0
KST3 150352Z 15004KT 25/14 A3018 RMK A01 T02500143  RH  052%=      5-min Rain = 0
KST3 150353Z 15004KT 25/14 A3018 RMK A01 T02490143  RH  051%=      5-min Rain = 0
KST3 150354Z 14004KT 25/14 A3019 RMK A01 T02500143  RH  052%=      5-min Rain = 0
KST3 150355Z 13004KT 25/14 A3019 RMK A01 T02490143  RH  052%=      5-min Rain = 0
KST3 150356Z 13004KT 25/14 A3019 RMK A01 T02490142  RH  051%=      5-min Rain = 0
KST3 150357Z 13003KT 25/14 A3019 RMK A01 T02500142  RH  051%=      5-min Rain = 0
KST3 150358Z 14003KT 25/14 A3019 RMK A01 T02500142  RH  051%=      5-min Rain = 0
KST3 150359Z 13003KT 25/14 A3019 RMK A01 T02510144  RH  051%=      5-min Rain = 0
KST3 150400Z 13003KT 25/14 A3019 RMK A01 T02500143  RH  051%=      5-min Rain = 0
KST3 150401Z 12004KT 25/14 A3019 RMK A01 T02500143  RH  052%=      5-min Rain = 0
KST3 150402Z 12004KT 25/14 A3019 RMK A01 T02500144  RH  052%=      5-min Rain = 0
KST3 150403Z 13004KT 25/14 A3019 RMK A01 T02490144  RH  052%=      5-min Rain = 0
KST3 150404Z 13003KT 25/14 A3019 RMK A01 T02490143  RH  052%=      5-min Rain = 0
KST3 150405Z 13003KT 25/14 A3019 RMK A01 T02480143  RH  052%=      5-min Rain = 0
KST3 150406Z 13004KT 25/14 A3019 RMK A01 T02480143  RH  052%=      5-min Rain = 0
KST3 150407Z 13004KT 25/14 A3019 RMK A01 T02480143  RH  052%=      5-min Rain = 0
KST3 150408Z 13004KT 25/14 A3019 RMK A01 T02480143  RH  052%=      5-min Rain = 0
KST3 150409Z 13004KT 25/14 A3019 RMK A01 T02480143  RH  052%=      5-min Rain = 0
KST3 150410Z 13004KT 25/14 A3019 RMK A01 T02480143  RH  052%=      5-min Rain = 0
KST3 150411Z 14004KT 25/14 A3019 RMK A01 T02480143  RH  052%=      5-min Rain = 0
KST3 150412Z 14004KT 25/14 A3019 RMK A01 T02480142  RH  052%=      5-min Rain = 0
KST3 150413Z 14004KT 25/14 A3019 RMK A01 T02490143  RH  052%=      5-min Rain = 0
KST3 150414Z 14004KT 25/14 A3019 RMK A01 T02480143  RH  052%=      5-min Rain = 0
KST3 150415Z 14005KT 25/14 A3019 RMK A01 T02490143  RH  052%=      5-min Rain = 0
KST3 150416Z 14005KT 25/14 A3019 RMK A01 T02480142  RH  052%=      5-min Rain = 0
KST3 150417Z 14006KT 25/14 A3019 RMK A01 T02480142  RH  052%=      5-min Rain = 0
KST3 150418Z 14005KT 25/14 A3019 RMK A01 T02490142  RH  051%=      5-min Rain = 0
KST3 150419Z 14006KT 25/14 A3019 RMK A01 T02490143  RH  052%=      5-min Rain = 0
KST3 150420Z 14005KT 25/14 A3019 RMK A01 T02490142  RH  051%=      5-min Rain = 0
KST3 150421Z 14006KT 25/14 A3019 RMK A01 T02500142  RH  051%=      5-min Rain = 0
KST3 150422Z 14005KT 25/14 A3019 RMK A01 T02500142  RH  051%=      5-min Rain = 0
KST3 150423Z 15006KT 25/14 A3019 RMK A01 T02500142  RH  051%=      5-min Rain = 0
KST3 150424Z 14005KT 25/14 A3019 RMK A01 T02500143  RH  051%=      5-min Rain = 0
KST3 150425Z 15006KT 25/14 A3019 RMK A01 T02490142  RH  051%=      5-min Rain = 0
KST3 150426Z 14006KT 25/14 A3019 RMK A01 T02490142  RH  051%=      5-min Rain = 0
KST3 150427Z 14006KT 25/14 A3019 RMK A01 T02500143  RH  051%=      5-min Rain = 0
KST3 150428Z 14006KT 25/14 A3019 RMK A01 T02490142  RH  051%=      5-min Rain = 0
KST3 150429Z 15006KT 25/14 A3019 RMK A01 T02490142  RH  051%=      5-min Rain = 0
KST3 150430Z 15007KT 25/14 A3019 RMK A01 T02490142  RH  051%=      5-min Rain = 0
KST3 150431Z 15007KT 25/14 A3019 RMK A01 T02490142  RH  051%=      5-min Rain = 0
KST3 150432Z 15006KT 25/14 A3019 RMK A01 T02490142  RH  051%=      5-min Rain = 0
KST3 150433Z 15007KT 25/14 A3019 RMK A01 T02500142  RH  051%=      5-min Rain = 0
KST3 150434Z 15006KT 25/14 A3019 RMK A01 T02490142  RH  051%=      5-min Rain = 0
KST3 150435Z 15006KT 25/14 A3019 RMK A01 T02490143  RH  052%=      5-min Rain = 0
KST3 150436Z 15006KT 25/14 A3019 RMK A01 T02480143  RH  052%=      5-min Rain = 0
KST3 150437Z 15006KT 25/14 A3019 RMK A01 T02480142  RH  052%=      5-min Rain = 0
KST3 150438Z 15005KT 25/14 A3019 RMK A01 T02480142  RH  052%=      5-min Rain = 0
KST3 150439Z 15005KT 25/14 A3019 RMK A01 T02480142  RH  052%=      5-min Rain = 0
KST3 150440Z 15006KT 25/14 A3019 RMK A01 T02480142  RH  052%=      5-min Rain = 0
KST3 150441Z 15006KT 25/14 A3019 RMK A01 T02480142  RH  052%=      5-min Rain = 0
KST3 150442Z 15006KT 25/14 A3019 RMK A01 T02480142  RH  052%=      5-min Rain = 0
KST3 150443Z 15005KT 25/14 A3019 RMK A01 T02480142  RH  052%=      5-min Rain = 0
KST3 150444Z 14005KT 25/14 A3019 RMK A01 T02480142  RH  052%=      5-min Rain = 0
KST3 150445Z 15005KT 25/14 A3019 RMK A01 T02480142  RH  052%=      5-min Rain = 0
KST3 150446Z 15005KT 25/14 A3019 RMK A01 T02470142  RH  052%=      5-min Rain = 0
KST3 150447Z 15005KT 25/14 A3019 RMK A01 T02460142  RH  052%=      5-min Rain = 0
KST3 150448Z 15006KT 25/14 A3019 RMK A01 T02460143  RH  053%=      5-min Rain = 0
KST3 150449Z 15005KT 25/14 A3019 RMK A01 T02450142  RH  053%=      5-min Rain = 0
KST3 150450Z 15005KT 25/14 A3019 RMK A01 T02450143  RH  053%=      5-min Rain = 0
KST3 150451Z 15005KT 25/14 A3019 RMK A01 T02450142  RH  053%=      5-min Rain = 0
KST3 150452Z 15005KT 25/14 A3019 RMK A01 T02450143  RH  053%=      5-min Rain = 0
KST3 150453Z 15005KT 24/14 A3019 RMK A01 T02440142  RH  053%=      5-min Rain = 0
KST3 150454Z 15005KT 24/14 A3019 RMK A01 T02440142  RH  053%=      5-min Rain = 0
KST3 150455Z 15005KT 24/14 A3018 RMK A01 T02440142  RH  053%=      5-min Rain = 0
KST3 150456Z 15005KT 24/14 A3018 RMK A01 T02440142  RH  053%=      5-min Rain = 0
KST3 150457Z 15005KT 24/14 A3018 RMK A01 T02440143  RH  053%=      5-min Rain = 0
KST3 150458Z 15005KT 24/14 A3018 RMK A01 T02430143  RH  053%=      5-min Rain = 0
KST3 150459Z 15005KT 24/14 A3018 RMK A01 T02430142  RH  053%=      5-min Rain = 0

Page generated in 0.1216 seconds.